<?xml version="1.0" encoding="UTF-8" standalone="no" ?>
<gpx xmlns="http://www.topografix.com/GPX/1/1" xmlns:xsi="http://www.w3.org/2001/XMLSchema-instance" xsi:schemaLocation="http://www.topografix.com/GPX/1/1 http://www.topografix.com/GPX/1/1/gpx.xsd" version="1.1" creator="VisuGPX - https://www.visugpx.com">
  <metadata>
    <name>Pointe Observatoire</name>
    <desc><![CDATA[Monginevro - Pointe Observatoire]]></desc>
  </metadata>
  <trk>
    <name><![CDATA[P_Observatoire_13 NOV 2019]]></name>
    <trkseg>
      <trkpt lat="44.92827" lon="6.71994">
        <ele>1862.69</ele>
        <time>2019-11-13T08:01:40Z</time>
      </trkpt>
      <trkpt lat="44.92826" lon="6.71997">
        <ele>1861.73</ele>
        <time>2019-11-13T08:02:00Z</time>
      </trkpt>
      <trkpt lat="44.92826" lon="6.71998">
        <ele>1861.73</ele>
        <time>2019-11-13T08:02:31Z</time>
      </trkpt>
      <trkpt lat="44.92824" lon="6.71998">
        <ele>1861.73</ele>
        <time>2019-11-13T08:03:01Z</time>
      </trkpt>
      <trkpt lat="44.92823" lon="6.71999">
        <ele>1861.73</ele>
        <time>2019-11-13T08:03:29Z</time>
      </trkpt>
      <trkpt lat="44.92824" lon="6.71999">
        <ele>1861.73</ele>
        <time>2019-11-13T08:04:01Z</time>
      </trkpt>
      <trkpt lat="44.92823" lon="6.71994">
        <ele>1861.73</ele>
        <time>2019-11-13T08:04:27Z</time>
      </trkpt>
      <trkpt lat="44.92824" lon="6.71995">
        <ele>1861.73</ele>
        <time>2019-11-13T08:05:02Z</time>
      </trkpt>
      <trkpt lat="44.92826" lon="6.71994">
        <ele>1861.73</ele>
        <time>2019-11-13T08:05:29Z</time>
      </trkpt>
      <trkpt lat="44.92824" lon="6.71997">
        <ele>1861.73</ele>
        <time>2019-11-13T08:05:59Z</time>
      </trkpt>
      <trkpt lat="44.92821" lon="6.71997">
        <ele>1861.73</ele>
        <time>2019-11-13T08:06:29Z</time>
      </trkpt>
      <trkpt lat="44.92823" lon="6.71994">
        <ele>1862.21</ele>
        <time>2019-11-13T08:06:57Z</time>
      </trkpt>
      <trkpt lat="44.92823" lon="6.71993">
        <ele>1862.21</ele>
        <time>2019-11-13T08:07:25Z</time>
      </trkpt>
      <trkpt lat="44.92822" lon="6.71995">
        <ele>1862.21</ele>
        <time>2019-11-13T08:08:11Z</time>
      </trkpt>
      <trkpt lat="44.92822" lon="6.71993">
        <ele>1862.21</ele>
        <time>2019-11-13T08:08:53Z</time>
      </trkpt>
      <trkpt lat="44.92821" lon="6.71997">
        <ele>1862.69</ele>
        <time>2019-11-13T08:09:39Z</time>
      </trkpt>
      <trkpt lat="44.92825" lon="6.71991">
        <ele>1863.17</ele>
        <time>2019-11-13T08:10:15Z</time>
      </trkpt>
      <trkpt lat="44.92824" lon="6.71995">
        <ele>1862.69</ele>
        <time>2019-11-13T08:10:48Z</time>
      </trkpt>
      <trkpt lat="44.92822" lon="6.71996">
        <ele>1863.17</ele>
        <time>2019-11-13T08:11:20Z</time>
      </trkpt>
      <trkpt lat="44.92826" lon="6.71994">
        <ele>1864.13</ele>
        <time>2019-11-13T08:11:43Z</time>
      </trkpt>
      <trkpt lat="44.92829" lon="6.71987">
        <ele>1863.65</ele>
        <time>2019-11-13T08:12:00Z</time>
      </trkpt>
      <trkpt lat="44.92826" lon="6.71992">
        <ele>1864.13</ele>
        <time>2019-11-13T08:12:14Z</time>
      </trkpt>
      <trkpt lat="44.92823" lon="6.71996">
        <ele>1864.13</ele>
        <time>2019-11-13T08:12:26Z</time>
      </trkpt>
      <trkpt lat="44.92819" lon="6.72001">
        <ele>1864.61</ele>
        <time>2019-11-13T08:12:39Z</time>
      </trkpt>
      <trkpt lat="44.92819" lon="6.7201">
        <ele>1864.61</ele>
        <time>2019-11-13T08:12:52Z</time>
      </trkpt>
      <trkpt lat="44.92819" lon="6.72021">
        <ele>1865.09</ele>
        <time>2019-11-13T08:12:59Z</time>
      </trkpt>
      <trkpt lat="44.92821" lon="6.72046">
        <ele>1866.06</ele>
        <time>2019-11-13T08:13:16Z</time>
      </trkpt>
      <trkpt lat="44.92821" lon="6.72055">
        <ele>1866.54</ele>
        <time>2019-11-13T08:13:30Z</time>
      </trkpt>
      <trkpt lat="44.92813" lon="6.7205">
        <ele>1869.42</ele>
        <time>2019-11-13T08:13:42Z</time>
      </trkpt>
      <trkpt lat="44.92814" lon="6.72052">
        <ele>1868.94</ele>
        <time>2019-11-13T08:13:58Z</time>
      </trkpt>
      <trkpt lat="44.92817" lon="6.72053">
        <ele>1868.94</ele>
        <time>2019-11-13T08:14:24Z</time>
      </trkpt>
      <trkpt lat="44.92813" lon="6.72052">
        <ele>1868.94</ele>
        <time>2019-11-13T08:14:44Z</time>
      </trkpt>
      <trkpt lat="44.92811" lon="6.72052">
        <ele>1868.94</ele>
        <time>2019-11-13T08:15:03Z</time>
      </trkpt>
      <trkpt lat="44.9281" lon="6.72055">
        <ele>1869.42</ele>
        <time>2019-11-13T08:15:22Z</time>
      </trkpt>
      <trkpt lat="44.9281" lon="6.72056">
        <ele>1869.42</ele>
        <time>2019-11-13T08:15:41Z</time>
      </trkpt>
      <trkpt lat="44.92803" lon="6.72058">
        <ele>1868.46</ele>
        <time>2019-11-13T08:16:02Z</time>
      </trkpt>
      <trkpt lat="44.92806" lon="6.72056">
        <ele>1868.94</ele>
        <time>2019-11-13T08:16:26Z</time>
      </trkpt>
      <trkpt lat="44.92808" lon="6.72058">
        <ele>1868.94</ele>
        <time>2019-11-13T08:16:47Z</time>
      </trkpt>
      <trkpt lat="44.92808" lon="6.72054">
        <ele>1868.94</ele>
        <time>2019-11-13T08:17:12Z</time>
      </trkpt>
      <trkpt lat="44.92807" lon="6.72056">
        <ele>1868.94</ele>
        <time>2019-11-13T08:17:31Z</time>
      </trkpt>
      <trkpt lat="44.92804" lon="6.72066">
        <ele>1869.42</ele>
        <time>2019-11-13T08:17:45Z</time>
      </trkpt>
      <trkpt lat="44.92801" lon="6.72075">
        <ele>1869.9</ele>
        <time>2019-11-13T08:17:57Z</time>
      </trkpt>
      <trkpt lat="44.92794" lon="6.72085">
        <ele>1870.86</ele>
        <time>2019-11-13T08:18:12Z</time>
      </trkpt>
      <trkpt lat="44.92782" lon="6.72087">
        <ele>1871.82</ele>
        <time>2019-11-13T08:18:32Z</time>
      </trkpt>
      <trkpt lat="44.92769" lon="6.7209">
        <ele>1872.3</ele>
        <time>2019-11-13T08:18:48Z</time>
      </trkpt>
      <trkpt lat="44.92757" lon="6.72089">
        <ele>1873.75</ele>
        <time>2019-11-13T08:19:05Z</time>
      </trkpt>
      <trkpt lat="44.92745" lon="6.72094">
        <ele>1875.19</ele>
        <time>2019-11-13T08:19:21Z</time>
      </trkpt>
      <trkpt lat="44.92734" lon="6.72093">
        <ele>1876.63</ele>
        <time>2019-11-13T08:19:39Z</time>
      </trkpt>
      <trkpt lat="44.92723" lon="6.72095">
        <ele>1877.59</ele>
        <time>2019-11-13T08:19:54Z</time>
      </trkpt>
      <trkpt lat="44.92711" lon="6.721">
        <ele>1879.03</ele>
        <time>2019-11-13T08:20:10Z</time>
      </trkpt>
      <trkpt lat="44.92701" lon="6.72106">
        <ele>1881.44</ele>
        <time>2019-11-13T08:20:27Z</time>
      </trkpt>
      <trkpt lat="44.9269" lon="6.72112">
        <ele>1883.36</ele>
        <time>2019-11-13T08:20:45Z</time>
      </trkpt>
      <trkpt lat="44.92681" lon="6.72117">
        <ele>1884.32</ele>
        <time>2019-11-13T08:21:02Z</time>
      </trkpt>
      <trkpt lat="44.9267" lon="6.72117">
        <ele>1886.72</ele>
        <time>2019-11-13T08:21:21Z</time>
      </trkpt>
      <trkpt lat="44.92661" lon="6.72119">
        <ele>1888.17</ele>
        <time>2019-11-13T08:21:39Z</time>
      </trkpt>
      <trkpt lat="44.92651" lon="6.72119">
        <ele>1890.09</ele>
        <time>2019-11-13T08:21:57Z</time>
      </trkpt>
      <trkpt lat="44.9264" lon="6.7212">
        <ele>1891.53</ele>
        <time>2019-11-13T08:22:14Z</time>
      </trkpt>
      <trkpt lat="44.92629" lon="6.72119">
        <ele>1893.45</ele>
        <time>2019-11-13T08:22:33Z</time>
      </trkpt>
      <trkpt lat="44.92621" lon="6.72121">
        <ele>1895.38</ele>
        <time>2019-11-13T08:22:53Z</time>
      </trkpt>
      <trkpt lat="44.92611" lon="6.72126">
        <ele>1897.3</ele>
        <time>2019-11-13T08:23:10Z</time>
      </trkpt>
      <trkpt lat="44.92602" lon="6.72129">
        <ele>1899.22</ele>
        <time>2019-11-13T08:23:28Z</time>
      </trkpt>
      <trkpt lat="44.92595" lon="6.7213">
        <ele>1900.66</ele>
        <time>2019-11-13T08:23:45Z</time>
      </trkpt>
      <trkpt lat="44.92589" lon="6.72139">
        <ele>1902.11</ele>
        <time>2019-11-13T08:24:00Z</time>
      </trkpt>
      <trkpt lat="44.92581" lon="6.72141">
        <ele>1903.55</ele>
        <time>2019-11-13T08:24:16Z</time>
      </trkpt>
      <trkpt lat="44.92575" lon="6.72142">
        <ele>1905.47</ele>
        <time>2019-11-13T08:24:30Z</time>
      </trkpt>
      <trkpt lat="44.92568" lon="6.72144">
        <ele>1906.91</ele>
        <time>2019-11-13T08:24:46Z</time>
      </trkpt>
      <trkpt lat="44.92561" lon="6.72149">
        <ele>1909.32</ele>
        <time>2019-11-13T08:25:06Z</time>
      </trkpt>
      <trkpt lat="44.92555" lon="6.72155">
        <ele>1910.76</ele>
        <time>2019-11-13T08:25:22Z</time>
      </trkpt>
      <trkpt lat="44.92546" lon="6.72157">
        <ele>1912.68</ele>
        <time>2019-11-13T08:25:39Z</time>
      </trkpt>
      <trkpt lat="44.92539" lon="6.72164">
        <ele>1914.12</ele>
        <time>2019-11-13T08:25:57Z</time>
      </trkpt>
      <trkpt lat="44.92529" lon="6.72166">
        <ele>1915.56</ele>
        <time>2019-11-13T08:26:14Z</time>
      </trkpt>
      <trkpt lat="44.92521" lon="6.72164">
        <ele>1917.49</ele>
        <time>2019-11-13T08:26:29Z</time>
      </trkpt>
      <trkpt lat="44.92513" lon="6.72162">
        <ele>1918.93</ele>
        <time>2019-11-13T08:26:44Z</time>
      </trkpt>
      <trkpt lat="44.92504" lon="6.7216">
        <ele>1920.37</ele>
        <time>2019-11-13T08:26:58Z</time>
      </trkpt>
      <trkpt lat="44.92496" lon="6.7216">
        <ele>1921.81</ele>
        <time>2019-11-13T08:27:11Z</time>
      </trkpt>
      <trkpt lat="44.92487" lon="6.72157">
        <ele>1923.25</ele>
        <time>2019-11-13T08:27:26Z</time>
      </trkpt>
      <trkpt lat="44.92483" lon="6.72156">
        <ele>1923.74</ele>
        <time>2019-11-13T08:27:38Z</time>
      </trkpt>
      <trkpt lat="44.92472" lon="6.72156">
        <ele>1925.66</ele>
        <time>2019-11-13T08:27:54Z</time>
      </trkpt>
      <trkpt lat="44.92464" lon="6.72157">
        <ele>1927.1</ele>
        <time>2019-11-13T08:28:08Z</time>
      </trkpt>
      <trkpt lat="44.92453" lon="6.72156">
        <ele>1928.54</ele>
        <time>2019-11-13T08:28:25Z</time>
      </trkpt>
      <trkpt lat="44.92442" lon="6.72157">
        <ele>1929.98</ele>
        <time>2019-11-13T08:28:42Z</time>
      </trkpt>
      <trkpt lat="44.92434" lon="6.72156">
        <ele>1931.91</ele>
        <time>2019-11-13T08:28:59Z</time>
      </trkpt>
      <trkpt lat="44.92423" lon="6.72158">
        <ele>1934.79</ele>
        <time>2019-11-13T08:29:18Z</time>
      </trkpt>
      <trkpt lat="44.92415" lon="6.72159">
        <ele>1936.23</ele>
        <time>2019-11-13T08:29:32Z</time>
      </trkpt>
      <trkpt lat="44.92406" lon="6.7216">
        <ele>1937.67</ele>
        <time>2019-11-13T08:29:48Z</time>
      </trkpt>
      <trkpt lat="44.92401" lon="6.72162">
        <ele>1939.12</ele>
        <time>2019-11-13T08:30:03Z</time>
      </trkpt>
      <trkpt lat="44.92396" lon="6.72163">
        <ele>1941.04</ele>
        <time>2019-11-13T08:30:19Z</time>
      </trkpt>
      <trkpt lat="44.9239" lon="6.72164">
        <ele>1942.96</ele>
        <time>2019-11-13T08:30:35Z</time>
      </trkpt>
      <trkpt lat="44.92385" lon="6.72163">
        <ele>1944.4</ele>
        <time>2019-11-13T08:30:46Z</time>
      </trkpt>
      <trkpt lat="44.92376" lon="6.72162">
        <ele>1945.36</ele>
        <time>2019-11-13T08:31:00Z</time>
      </trkpt>
      <trkpt lat="44.92368" lon="6.72163">
        <ele>1946.33</ele>
        <time>2019-11-13T08:31:14Z</time>
      </trkpt>
      <trkpt lat="44.92361" lon="6.72162">
        <ele>1947.77</ele>
        <time>2019-11-13T08:31:27Z</time>
      </trkpt>
      <trkpt lat="44.92354" lon="6.72162">
        <ele>1949.21</ele>
        <time>2019-11-13T08:31:41Z</time>
      </trkpt>
      <trkpt lat="44.92347" lon="6.72159">
        <ele>1950.17</ele>
        <time>2019-11-13T08:31:57Z</time>
      </trkpt>
      <trkpt lat="44.92339" lon="6.72159">
        <ele>1952.09</ele>
        <time>2019-11-13T08:32:14Z</time>
      </trkpt>
      <trkpt lat="44.92332" lon="6.72162">
        <ele>1953.54</ele>
        <time>2019-11-13T08:32:29Z</time>
      </trkpt>
      <trkpt lat="44.92322" lon="6.72162">
        <ele>1955.46</ele>
        <time>2019-11-13T08:32:50Z</time>
      </trkpt>
      <trkpt lat="44.92312" lon="6.72167">
        <ele>1957.38</ele>
        <time>2019-11-13T08:33:07Z</time>
      </trkpt>
      <trkpt lat="44.92306" lon="6.72172">
        <ele>1958.34</ele>
        <time>2019-11-13T08:33:21Z</time>
      </trkpt>
      <trkpt lat="44.923" lon="6.7218">
        <ele>1959.3</ele>
        <time>2019-11-13T08:33:36Z</time>
      </trkpt>
      <trkpt lat="44.92292" lon="6.72184">
        <ele>1960.27</ele>
        <time>2019-11-13T08:33:51Z</time>
      </trkpt>
      <trkpt lat="44.92292" lon="6.72183">
        <ele>1960.27</ele>
        <time>2019-11-13T08:34:08Z</time>
      </trkpt>
      <trkpt lat="44.92293" lon="6.72184">
        <ele>1959.3</ele>
        <time>2019-11-13T08:34:25Z</time>
      </trkpt>
      <trkpt lat="44.92291" lon="6.72184">
        <ele>1958.82</ele>
        <time>2019-11-13T08:34:50Z</time>
      </trkpt>
      <trkpt lat="44.92291" lon="6.72187">
        <ele>1958.82</ele>
        <time>2019-11-13T08:35:22Z</time>
      </trkpt>
      <trkpt lat="44.9229" lon="6.72183">
        <ele>1959.78</ele>
        <time>2019-11-13T08:35:44Z</time>
      </trkpt>
      <trkpt lat="44.9229" lon="6.72185">
        <ele>1959.78</ele>
        <time>2019-11-13T08:36:02Z</time>
      </trkpt>
      <trkpt lat="44.92289" lon="6.72187">
        <ele>1959.78</ele>
        <time>2019-11-13T08:36:23Z</time>
      </trkpt>
      <trkpt lat="44.92281" lon="6.72191">
        <ele>1960.75</ele>
        <time>2019-11-13T08:36:36Z</time>
      </trkpt>
      <trkpt lat="44.92274" lon="6.72197">
        <ele>1962.19</ele>
        <time>2019-11-13T08:36:47Z</time>
      </trkpt>
      <trkpt lat="44.92265" lon="6.72205">
        <ele>1963.63</ele>
        <time>2019-11-13T08:37:02Z</time>
      </trkpt>
      <trkpt lat="44.92256" lon="6.72211">
        <ele>1964.59</ele>
        <time>2019-11-13T08:37:16Z</time>
      </trkpt>
      <trkpt lat="44.92248" lon="6.72217">
        <ele>1965.55</ele>
        <time>2019-11-13T08:37:29Z</time>
      </trkpt>
      <trkpt lat="44.92238" lon="6.72225">
        <ele>1966.51</ele>
        <time>2019-11-13T08:37:45Z</time>
      </trkpt>
      <trkpt lat="44.92228" lon="6.72231">
        <ele>1968.44</ele>
        <time>2019-11-13T08:38:02Z</time>
      </trkpt>
      <trkpt lat="44.92218" lon="6.72239">
        <ele>1969.4</ele>
        <time>2019-11-13T08:38:19Z</time>
      </trkpt>
      <trkpt lat="44.92208" lon="6.72244">
        <ele>1970.36</ele>
        <time>2019-11-13T08:38:33Z</time>
      </trkpt>
      <trkpt lat="44.92201" lon="6.7225">
        <ele>1971.32</ele>
        <time>2019-11-13T08:38:47Z</time>
      </trkpt>
      <trkpt lat="44.92194" lon="6.72255">
        <ele>1971.8</ele>
        <time>2019-11-13T08:39:00Z</time>
      </trkpt>
      <trkpt lat="44.92186" lon="6.7226">
        <ele>1973.24</ele>
        <time>2019-11-13T08:39:14Z</time>
      </trkpt>
      <trkpt lat="44.92175" lon="6.72267">
        <ele>1973.72</ele>
        <time>2019-11-13T08:39:31Z</time>
      </trkpt>
      <trkpt lat="44.92166" lon="6.72272">
        <ele>1974.69</ele>
        <time>2019-11-13T08:39:46Z</time>
      </trkpt>
      <trkpt lat="44.92159" lon="6.72282">
        <ele>1975.65</ele>
        <time>2019-11-13T08:40:00Z</time>
      </trkpt>
      <trkpt lat="44.92152" lon="6.72288">
        <ele>1976.13</ele>
        <time>2019-11-13T08:40:14Z</time>
      </trkpt>
      <trkpt lat="44.92144" lon="6.72293">
        <ele>1977.09</ele>
        <time>2019-11-13T08:40:28Z</time>
      </trkpt>
      <trkpt lat="44.92135" lon="6.72298">
        <ele>1978.05</ele>
        <time>2019-11-13T08:40:43Z</time>
      </trkpt>
      <trkpt lat="44.92124" lon="6.72304">
        <ele>1978.53</ele>
        <time>2019-11-13T08:40:58Z</time>
      </trkpt>
      <trkpt lat="44.92115" lon="6.72306">
        <ele>1979.01</ele>
        <time>2019-11-13T08:41:11Z</time>
      </trkpt>
      <trkpt lat="44.92106" lon="6.72312">
        <ele>1979.97</ele>
        <time>2019-11-13T08:41:25Z</time>
      </trkpt>
      <trkpt lat="44.92097" lon="6.72321">
        <ele>1980.93</ele>
        <time>2019-11-13T08:41:40Z</time>
      </trkpt>
      <trkpt lat="44.92087" lon="6.72327">
        <ele>1981.9</ele>
        <time>2019-11-13T08:41:56Z</time>
      </trkpt>
      <trkpt lat="44.92077" lon="6.72331">
        <ele>1982.86</ele>
        <time>2019-11-13T08:42:11Z</time>
      </trkpt>
      <trkpt lat="44.92069" lon="6.72335">
        <ele>1984.3</ele>
        <time>2019-11-13T08:42:23Z</time>
      </trkpt>
      <trkpt lat="44.92062" lon="6.7234">
        <ele>1985.26</ele>
        <time>2019-11-13T08:42:36Z</time>
      </trkpt>
      <trkpt lat="44.92053" lon="6.72347">
        <ele>1986.7</ele>
        <time>2019-11-13T08:42:51Z</time>
      </trkpt>
      <trkpt lat="44.92046" lon="6.72347">
        <ele>1988.62</ele>
        <time>2019-11-13T08:43:05Z</time>
      </trkpt>
      <trkpt lat="44.92037" lon="6.72351">
        <ele>1989.59</ele>
        <time>2019-11-13T08:43:18Z</time>
      </trkpt>
      <trkpt lat="44.92028" lon="6.72353">
        <ele>1990.55</ele>
        <time>2019-11-13T08:43:32Z</time>
      </trkpt>
      <trkpt lat="44.92018" lon="6.72356">
        <ele>1991.51</ele>
        <time>2019-11-13T08:43:47Z</time>
      </trkpt>
      <trkpt lat="44.92011" lon="6.72359">
        <ele>1991.99</ele>
        <time>2019-11-13T08:44:00Z</time>
      </trkpt>
      <trkpt lat="44.92004" lon="6.72364">
        <ele>1992.95</ele>
        <time>2019-11-13T08:44:14Z</time>
      </trkpt>
      <trkpt lat="44.91994" lon="6.72369">
        <ele>1993.91</ele>
        <time>2019-11-13T08:44:29Z</time>
      </trkpt>
      <trkpt lat="44.91984" lon="6.72374">
        <ele>1994.87</ele>
        <time>2019-11-13T08:44:44Z</time>
      </trkpt>
      <trkpt lat="44.91975" lon="6.72377">
        <ele>1996.32</ele>
        <time>2019-11-13T08:44:58Z</time>
      </trkpt>
      <trkpt lat="44.91965" lon="6.72382">
        <ele>1997.28</ele>
        <time>2019-11-13T08:45:13Z</time>
      </trkpt>
      <trkpt lat="44.91957" lon="6.72386">
        <ele>1997.76</ele>
        <time>2019-11-13T08:45:25Z</time>
      </trkpt>
      <trkpt lat="44.91949" lon="6.72392">
        <ele>1998.24</ele>
        <time>2019-11-13T08:45:39Z</time>
      </trkpt>
      <trkpt lat="44.9194" lon="6.72397">
        <ele>1999.2</ele>
        <time>2019-11-13T08:45:51Z</time>
      </trkpt>
      <trkpt lat="44.91931" lon="6.724">
        <ele>1999.68</ele>
        <time>2019-11-13T08:46:04Z</time>
      </trkpt>
      <trkpt lat="44.91922" lon="6.72404">
        <ele>2000.64</ele>
        <time>2019-11-13T08:46:18Z</time>
      </trkpt>
      <trkpt lat="44.91912" lon="6.72405">
        <ele>2001.6</ele>
        <time>2019-11-13T08:46:32Z</time>
      </trkpt>
      <trkpt lat="44.91904" lon="6.72408">
        <ele>2003.04</ele>
        <time>2019-11-13T08:46:46Z</time>
      </trkpt>
      <trkpt lat="44.91893" lon="6.7241">
        <ele>2003.04</ele>
        <time>2019-11-13T08:47:00Z</time>
      </trkpt>
      <trkpt lat="44.91882" lon="6.72411">
        <ele>2003.52</ele>
        <time>2019-11-13T08:47:14Z</time>
      </trkpt>
      <trkpt lat="44.91872" lon="6.72412">
        <ele>2004.49</ele>
        <time>2019-11-13T08:47:27Z</time>
      </trkpt>
      <trkpt lat="44.91866" lon="6.72414">
        <ele>2004.97</ele>
        <time>2019-11-13T08:47:36Z</time>
      </trkpt>
      <trkpt lat="44.91859" lon="6.72417">
        <ele>2005.93</ele>
        <time>2019-11-13T08:47:47Z</time>
      </trkpt>
      <trkpt lat="44.91849" lon="6.72416">
        <ele>2006.89</ele>
        <time>2019-11-13T08:48:01Z</time>
      </trkpt>
      <trkpt lat="44.91842" lon="6.72419">
        <ele>2008.33</ele>
        <time>2019-11-13T08:48:14Z</time>
      </trkpt>
      <trkpt lat="44.91833" lon="6.72423">
        <ele>2009.77</ele>
        <time>2019-11-13T08:48:28Z</time>
      </trkpt>
      <trkpt lat="44.91832" lon="6.72424">
        <ele>2010.25</ele>
        <time>2019-11-13T08:48:31Z</time>
      </trkpt>
      <trkpt lat="44.91819" lon="6.72428">
        <ele>2010.25</ele>
        <time>2019-11-13T08:48:47Z</time>
      </trkpt>
      <trkpt lat="44.91808" lon="6.7243">
        <ele>2011.22</ele>
        <time>2019-11-13T08:49:03Z</time>
      </trkpt>
      <trkpt lat="44.91797" lon="6.72434">
        <ele>2011.7</ele>
        <time>2019-11-13T08:49:17Z</time>
      </trkpt>
      <trkpt lat="44.91788" lon="6.72435">
        <ele>2012.66</ele>
        <time>2019-11-13T08:49:30Z</time>
      </trkpt>
      <trkpt lat="44.91779" lon="6.72435">
        <ele>2014.1</ele>
        <time>2019-11-13T08:49:45Z</time>
      </trkpt>
      <trkpt lat="44.91771" lon="6.72437">
        <ele>2014.58</ele>
        <time>2019-11-13T08:49:55Z</time>
      </trkpt>
      <trkpt lat="44.91759" lon="6.72438">
        <ele>2015.06</ele>
        <time>2019-11-13T08:50:10Z</time>
      </trkpt>
      <trkpt lat="44.91751" lon="6.72438">
        <ele>2015.54</ele>
        <time>2019-11-13T08:50:20Z</time>
      </trkpt>
      <trkpt lat="44.9174" lon="6.72436">
        <ele>2016.02</ele>
        <time>2019-11-13T08:50:34Z</time>
      </trkpt>
      <trkpt lat="44.91731" lon="6.72438">
        <ele>2016.5</ele>
        <time>2019-11-13T08:50:44Z</time>
      </trkpt>
      <trkpt lat="44.91723" lon="6.72441">
        <ele>2017.46</ele>
        <time>2019-11-13T08:50:56Z</time>
      </trkpt>
      <trkpt lat="44.91715" lon="6.72443">
        <ele>2018.43</ele>
        <time>2019-11-13T08:51:11Z</time>
      </trkpt>
      <trkpt lat="44.91705" lon="6.72447">
        <ele>2018.43</ele>
        <time>2019-11-13T08:51:24Z</time>
      </trkpt>
      <trkpt lat="44.917" lon="6.72449">
        <ele>2018.91</ele>
        <time>2019-11-13T08:51:31Z</time>
      </trkpt>
      <trkpt lat="44.9169" lon="6.72454">
        <ele>2019.39</ele>
        <time>2019-11-13T08:51:46Z</time>
      </trkpt>
      <trkpt lat="44.91688" lon="6.72454">
        <ele>2019.87</ele>
        <time>2019-11-13T08:51:51Z</time>
      </trkpt>
      <trkpt lat="44.91677" lon="6.72455">
        <ele>2020.35</ele>
        <time>2019-11-13T08:52:05Z</time>
      </trkpt>
      <trkpt lat="44.9167" lon="6.72455">
        <ele>2021.31</ele>
        <time>2019-11-13T08:52:18Z</time>
      </trkpt>
      <trkpt lat="44.9166" lon="6.7245">
        <ele>2023.23</ele>
        <time>2019-11-13T08:52:34Z</time>
      </trkpt>
      <trkpt lat="44.91655" lon="6.72448">
        <ele>2024.19</ele>
        <time>2019-11-13T08:52:48Z</time>
      </trkpt>
      <trkpt lat="44.91651" lon="6.72442">
        <ele>2026.6</ele>
        <time>2019-11-13T08:53:03Z</time>
      </trkpt>
      <trkpt lat="44.91647" lon="6.72438">
        <ele>2028.52</ele>
        <time>2019-11-13T08:53:18Z</time>
      </trkpt>
      <trkpt lat="44.91643" lon="6.72433">
        <ele>2030.44</ele>
        <time>2019-11-13T08:53:34Z</time>
      </trkpt>
      <trkpt lat="44.9164" lon="6.72427">
        <ele>2032.36</ele>
        <time>2019-11-13T08:53:50Z</time>
      </trkpt>
      <trkpt lat="44.91636" lon="6.72422">
        <ele>2034.29</ele>
        <time>2019-11-13T08:54:06Z</time>
      </trkpt>
      <trkpt lat="44.91631" lon="6.72415">
        <ele>2036.21</ele>
        <time>2019-11-13T08:54:22Z</time>
      </trkpt>
      <trkpt lat="44.91627" lon="6.72412">
        <ele>2037.65</ele>
        <time>2019-11-13T08:54:36Z</time>
      </trkpt>
      <trkpt lat="44.91622" lon="6.72406">
        <ele>2039.09</ele>
        <time>2019-11-13T08:54:50Z</time>
      </trkpt>
      <trkpt lat="44.91617" lon="6.72399">
        <ele>2040.54</ele>
        <time>2019-11-13T08:55:07Z</time>
      </trkpt>
      <trkpt lat="44.91611" lon="6.72395">
        <ele>2041.98</ele>
        <time>2019-11-13T08:55:23Z</time>
      </trkpt>
      <trkpt lat="44.91605" lon="6.72394">
        <ele>2043.9</ele>
        <time>2019-11-13T08:55:39Z</time>
      </trkpt>
      <trkpt lat="44.91599" lon="6.72388">
        <ele>2045.34</ele>
        <time>2019-11-13T08:55:53Z</time>
      </trkpt>
      <trkpt lat="44.91595" lon="6.72384">
        <ele>2046.78</ele>
        <time>2019-11-13T08:56:08Z</time>
      </trkpt>
      <trkpt lat="44.91588" lon="6.72387">
        <ele>2047.75</ele>
        <time>2019-11-13T08:56:20Z</time>
      </trkpt>
      <trkpt lat="44.91582" lon="6.72397">
        <ele>2048.23</ele>
        <time>2019-11-13T08:56:34Z</time>
      </trkpt>
      <trkpt lat="44.91579" lon="6.72412">
        <ele>2049.67</ele>
        <time>2019-11-13T08:56:51Z</time>
      </trkpt>
      <trkpt lat="44.91578" lon="6.72414">
        <ele>2049.67</ele>
        <time>2019-11-13T08:56:54Z</time>
      </trkpt>
      <trkpt lat="44.91574" lon="6.72428">
        <ele>2050.63</ele>
        <time>2019-11-13T08:57:09Z</time>
      </trkpt>
      <trkpt lat="44.91568" lon="6.72439">
        <ele>2052.07</ele>
        <time>2019-11-13T08:57:25Z</time>
      </trkpt>
      <trkpt lat="44.91556" lon="6.72446">
        <ele>2052.55</ele>
        <time>2019-11-13T08:57:40Z</time>
      </trkpt>
      <trkpt lat="44.91546" lon="6.72449">
        <ele>2053.51</ele>
        <time>2019-11-13T08:57:54Z</time>
      </trkpt>
      <trkpt lat="44.91532" lon="6.72452">
        <ele>2054.47</ele>
        <time>2019-11-13T08:58:12Z</time>
      </trkpt>
      <trkpt lat="44.91522" lon="6.72455">
        <ele>2055.44</ele>
        <time>2019-11-13T08:58:27Z</time>
      </trkpt>
      <trkpt lat="44.91513" lon="6.72453">
        <ele>2056.4</ele>
        <time>2019-11-13T08:58:42Z</time>
      </trkpt>
      <trkpt lat="44.91511" lon="6.72452">
        <ele>2056.4</ele>
        <time>2019-11-13T08:58:45Z</time>
      </trkpt>
      <trkpt lat="44.91502" lon="6.72446">
        <ele>2057.36</ele>
        <time>2019-11-13T08:59:01Z</time>
      </trkpt>
      <trkpt lat="44.91494" lon="6.72436">
        <ele>2058.32</ele>
        <time>2019-11-13T08:59:16Z</time>
      </trkpt>
      <trkpt lat="44.91485" lon="6.72426">
        <ele>2058.8</ele>
        <time>2019-11-13T08:59:30Z</time>
      </trkpt>
      <trkpt lat="44.91475" lon="6.72419">
        <ele>2059.76</ele>
        <time>2019-11-13T08:59:45Z</time>
      </trkpt>
      <trkpt lat="44.91465" lon="6.72414">
        <ele>2060.72</ele>
        <time>2019-11-13T09:00:01Z</time>
      </trkpt>
      <trkpt lat="44.9146" lon="6.7241">
        <ele>2061.2</ele>
        <time>2019-11-13T09:00:08Z</time>
      </trkpt>
      <trkpt lat="44.91449" lon="6.72406">
        <ele>2062.17</ele>
        <time>2019-11-13T09:00:23Z</time>
      </trkpt>
      <trkpt lat="44.91443" lon="6.72402">
        <ele>2062.65</ele>
        <time>2019-11-13T09:00:32Z</time>
      </trkpt>
      <trkpt lat="44.91433" lon="6.72394">
        <ele>2063.13</ele>
        <time>2019-11-13T09:00:50Z</time>
      </trkpt>
      <trkpt lat="44.91425" lon="6.72391">
        <ele>2064.09</ele>
        <time>2019-11-13T09:01:07Z</time>
      </trkpt>
      <trkpt lat="44.91424" lon="6.72389">
        <ele>2063.61</ele>
        <time>2019-11-13T09:01:22Z</time>
      </trkpt>
      <trkpt lat="44.91424" lon="6.72386">
        <ele>2063.13</ele>
        <time>2019-11-13T09:01:57Z</time>
      </trkpt>
      <trkpt lat="44.91425" lon="6.72388">
        <ele>2063.13</ele>
        <time>2019-11-13T09:02:13Z</time>
      </trkpt>
      <trkpt lat="44.91425" lon="6.72388">
        <ele>2063.13</ele>
        <time>2019-11-13T09:02:52Z</time>
      </trkpt>
      <trkpt lat="44.91424" lon="6.72389">
        <ele>2063.13</ele>
        <time>2019-11-13T09:03:23Z</time>
      </trkpt>
      <trkpt lat="44.91424" lon="6.72389">
        <ele>2064.57</ele>
        <time>2019-11-13T09:03:53Z</time>
      </trkpt>
      <trkpt lat="44.91425" lon="6.72389">
        <ele>2064.57</ele>
        <time>2019-11-13T09:04:08Z</time>
      </trkpt>
      <trkpt lat="44.91426" lon="6.72388">
        <ele>2064.09</ele>
        <time>2019-11-13T09:04:42Z</time>
      </trkpt>
      <trkpt lat="44.91425" lon="6.72389">
        <ele>2064.09</ele>
        <time>2019-11-13T09:04:57Z</time>
      </trkpt>
      <trkpt lat="44.9142" lon="6.72388">
        <ele>2064.09</ele>
        <time>2019-11-13T09:05:18Z</time>
      </trkpt>
      <trkpt lat="44.91411" lon="6.7239">
        <ele>2064.57</ele>
        <time>2019-11-13T09:05:33Z</time>
      </trkpt>
      <trkpt lat="44.91398" lon="6.72394">
        <ele>2065.53</ele>
        <time>2019-11-13T09:05:49Z</time>
      </trkpt>
      <trkpt lat="44.91396" lon="6.72394">
        <ele>2065.53</ele>
        <time>2019-11-13T09:05:53Z</time>
      </trkpt>
      <trkpt lat="44.91383" lon="6.72395">
        <ele>2066.97</ele>
        <time>2019-11-13T09:06:09Z</time>
      </trkpt>
      <trkpt lat="44.91374" lon="6.72395">
        <ele>2067.45</ele>
        <time>2019-11-13T09:06:22Z</time>
      </trkpt>
      <trkpt lat="44.91361" lon="6.72392">
        <ele>2068.41</ele>
        <time>2019-11-13T09:06:38Z</time>
      </trkpt>
      <trkpt lat="44.9135" lon="6.72385">
        <ele>2069.86</ele>
        <time>2019-11-13T09:06:54Z</time>
      </trkpt>
      <trkpt lat="44.91339" lon="6.72376">
        <ele>2070.82</ele>
        <time>2019-11-13T09:07:11Z</time>
      </trkpt>
      <trkpt lat="44.9133" lon="6.72374">
        <ele>2071.78</ele>
        <time>2019-11-13T09:07:26Z</time>
      </trkpt>
      <trkpt lat="44.91319" lon="6.72368">
        <ele>2072.74</ele>
        <time>2019-11-13T09:07:41Z</time>
      </trkpt>
      <trkpt lat="44.91309" lon="6.7236">
        <ele>2073.7</ele>
        <time>2019-11-13T09:07:55Z</time>
      </trkpt>
      <trkpt lat="44.91301" lon="6.7235">
        <ele>2075.14</ele>
        <time>2019-11-13T09:08:11Z</time>
      </trkpt>
      <trkpt lat="44.91294" lon="6.72339">
        <ele>2076.1</ele>
        <time>2019-11-13T09:08:27Z</time>
      </trkpt>
      <trkpt lat="44.91287" lon="6.72327">
        <ele>2077.07</ele>
        <time>2019-11-13T09:08:42Z</time>
      </trkpt>
      <trkpt lat="44.91279" lon="6.72315">
        <ele>2078.03</ele>
        <time>2019-11-13T09:08:58Z</time>
      </trkpt>
      <trkpt lat="44.91269" lon="6.72307">
        <ele>2078.99</ele>
        <time>2019-11-13T09:09:12Z</time>
      </trkpt>
      <trkpt lat="44.91257" lon="6.72305">
        <ele>2079.95</ele>
        <time>2019-11-13T09:09:27Z</time>
      </trkpt>
      <trkpt lat="44.91246" lon="6.72305">
        <ele>2080.91</ele>
        <time>2019-11-13T09:09:41Z</time>
      </trkpt>
      <trkpt lat="44.91235" lon="6.72306">
        <ele>2081.87</ele>
        <time>2019-11-13T09:09:55Z</time>
      </trkpt>
      <trkpt lat="44.91226" lon="6.72309">
        <ele>2083.31</ele>
        <time>2019-11-13T09:10:10Z</time>
      </trkpt>
      <trkpt lat="44.91215" lon="6.72312">
        <ele>2083.31</ele>
        <time>2019-11-13T09:10:24Z</time>
      </trkpt>
      <trkpt lat="44.91203" lon="6.72314">
        <ele>2084.28</ele>
        <time>2019-11-13T09:10:39Z</time>
      </trkpt>
      <trkpt lat="44.91194" lon="6.72314">
        <ele>2085.24</ele>
        <time>2019-11-13T09:10:51Z</time>
      </trkpt>
      <trkpt lat="44.91183" lon="6.72314">
        <ele>2085.72</ele>
        <time>2019-11-13T09:11:06Z</time>
      </trkpt>
      <trkpt lat="44.91173" lon="6.72312">
        <ele>2087.16</ele>
        <time>2019-11-13T09:11:20Z</time>
      </trkpt>
      <trkpt lat="44.91164" lon="6.72308">
        <ele>2088.6</ele>
        <time>2019-11-13T09:11:34Z</time>
      </trkpt>
      <trkpt lat="44.91152" lon="6.72304">
        <ele>2089.56</ele>
        <time>2019-11-13T09:11:51Z</time>
      </trkpt>
      <trkpt lat="44.9114" lon="6.723">
        <ele>2091.97</ele>
        <time>2019-11-13T09:12:06Z</time>
      </trkpt>
      <trkpt lat="44.91129" lon="6.72296">
        <ele>2091</ele>
        <time>2019-11-13T09:12:22Z</time>
      </trkpt>
      <trkpt lat="44.91119" lon="6.72293">
        <ele>2091.49</ele>
        <time>2019-11-13T09:12:37Z</time>
      </trkpt>
      <trkpt lat="44.9111" lon="6.7229">
        <ele>2092.45</ele>
        <time>2019-11-13T09:12:51Z</time>
      </trkpt>
      <trkpt lat="44.91098" lon="6.72289">
        <ele>2093.41</ele>
        <time>2019-11-13T09:13:07Z</time>
      </trkpt>
      <trkpt lat="44.91085" lon="6.72291">
        <ele>2093.89</ele>
        <time>2019-11-13T09:13:22Z</time>
      </trkpt>
      <trkpt lat="44.91074" lon="6.72292">
        <ele>2094.37</ele>
        <time>2019-11-13T09:13:35Z</time>
      </trkpt>
      <trkpt lat="44.91061" lon="6.72293">
        <ele>2094.85</ele>
        <time>2019-11-13T09:13:50Z</time>
      </trkpt>
      <trkpt lat="44.91048" lon="6.72289">
        <ele>2094.85</ele>
        <time>2019-11-13T09:14:05Z</time>
      </trkpt>
      <trkpt lat="44.91038" lon="6.72282">
        <ele>2095.33</ele>
        <time>2019-11-13T09:14:20Z</time>
      </trkpt>
      <trkpt lat="44.9103" lon="6.72284">
        <ele>2096.77</ele>
        <time>2019-11-13T09:14:34Z</time>
      </trkpt>
      <trkpt lat="44.91022" lon="6.7228">
        <ele>2098.21</ele>
        <time>2019-11-13T09:14:48Z</time>
      </trkpt>
      <trkpt lat="44.91016" lon="6.7228">
        <ele>2099.66</ele>
        <time>2019-11-13T09:15:02Z</time>
      </trkpt>
      <trkpt lat="44.91007" lon="6.72278">
        <ele>2101.1</ele>
        <time>2019-11-13T09:15:18Z</time>
      </trkpt>
      <trkpt lat="44.91" lon="6.72274">
        <ele>2102.06</ele>
        <time>2019-11-13T09:15:32Z</time>
      </trkpt>
      <trkpt lat="44.91" lon="6.72267">
        <ele>2103.98</ele>
        <time>2019-11-13T09:15:50Z</time>
      </trkpt>
      <trkpt lat="44.90998" lon="6.7226">
        <ele>2105.91</ele>
        <time>2019-11-13T09:16:06Z</time>
      </trkpt>
      <trkpt lat="44.90989" lon="6.72256">
        <ele>2107.35</ele>
        <time>2019-11-13T09:16:24Z</time>
      </trkpt>
      <trkpt lat="44.90983" lon="6.72256">
        <ele>2109.27</ele>
        <time>2019-11-13T09:16:40Z</time>
      </trkpt>
      <trkpt lat="44.90975" lon="6.72251">
        <ele>2110.23</ele>
        <time>2019-11-13T09:16:56Z</time>
      </trkpt>
      <trkpt lat="44.90974" lon="6.72246">
        <ele>2112.15</ele>
        <time>2019-11-13T09:17:11Z</time>
      </trkpt>
      <trkpt lat="44.90976" lon="6.72237">
        <ele>2113.6</ele>
        <time>2019-11-13T09:17:26Z</time>
      </trkpt>
      <trkpt lat="44.90977" lon="6.72229">
        <ele>2115.04</ele>
        <time>2019-11-13T09:17:41Z</time>
      </trkpt>
      <trkpt lat="44.90973" lon="6.72221">
        <ele>2116.48</ele>
        <time>2019-11-13T09:17:56Z</time>
      </trkpt>
      <trkpt lat="44.90973" lon="6.72216">
        <ele>2117.92</ele>
        <time>2019-11-13T09:18:12Z</time>
      </trkpt>
      <trkpt lat="44.9097" lon="6.72207">
        <ele>2119.36</ele>
        <time>2019-11-13T09:18:28Z</time>
      </trkpt>
      <trkpt lat="44.90968" lon="6.72199">
        <ele>2120.81</ele>
        <time>2019-11-13T09:18:46Z</time>
      </trkpt>
      <trkpt lat="44.90965" lon="6.72191">
        <ele>2122.73</ele>
        <time>2019-11-13T09:19:02Z</time>
      </trkpt>
      <trkpt lat="44.90962" lon="6.72182">
        <ele>2124.17</ele>
        <time>2019-11-13T09:19:19Z</time>
      </trkpt>
      <trkpt lat="44.90961" lon="6.72175">
        <ele>2125.61</ele>
        <time>2019-11-13T09:19:33Z</time>
      </trkpt>
      <trkpt lat="44.90958" lon="6.72166">
        <ele>2127.05</ele>
        <time>2019-11-13T09:19:49Z</time>
      </trkpt>
      <trkpt lat="44.90957" lon="6.72155">
        <ele>2128.98</ele>
        <time>2019-11-13T09:20:08Z</time>
      </trkpt>
      <trkpt lat="44.90955" lon="6.72145">
        <ele>2130.9</ele>
        <time>2019-11-13T09:20:25Z</time>
      </trkpt>
      <trkpt lat="44.90954" lon="6.72134">
        <ele>2132.34</ele>
        <time>2019-11-13T09:20:43Z</time>
      </trkpt>
      <trkpt lat="44.90954" lon="6.72123">
        <ele>2133.78</ele>
        <time>2019-11-13T09:21:00Z</time>
      </trkpt>
      <trkpt lat="44.90953" lon="6.72115">
        <ele>2134.74</ele>
        <time>2019-11-13T09:21:15Z</time>
      </trkpt>
      <trkpt lat="44.90956" lon="6.72107">
        <ele>2136.67</ele>
        <time>2019-11-13T09:21:29Z</time>
      </trkpt>
      <trkpt lat="44.90959" lon="6.72101">
        <ele>2138.59</ele>
        <time>2019-11-13T09:21:44Z</time>
      </trkpt>
      <trkpt lat="44.90958" lon="6.72091">
        <ele>2140.51</ele>
        <time>2019-11-13T09:22:01Z</time>
      </trkpt>
      <trkpt lat="44.90957" lon="6.72085">
        <ele>2143.88</ele>
        <time>2019-11-13T09:22:12Z</time>
      </trkpt>
      <trkpt lat="44.90954" lon="6.72075">
        <ele>2143.4</ele>
        <time>2019-11-13T09:22:28Z</time>
      </trkpt>
      <trkpt lat="44.9095" lon="6.72067">
        <ele>2144.84</ele>
        <time>2019-11-13T09:22:42Z</time>
      </trkpt>
      <trkpt lat="44.90947" lon="6.7206">
        <ele>2146.28</ele>
        <time>2019-11-13T09:22:58Z</time>
      </trkpt>
      <trkpt lat="44.90943" lon="6.72052">
        <ele>2148.2</ele>
        <time>2019-11-13T09:23:15Z</time>
      </trkpt>
      <trkpt lat="44.90939" lon="6.72045">
        <ele>2149.65</ele>
        <time>2019-11-13T09:23:31Z</time>
      </trkpt>
      <trkpt lat="44.90936" lon="6.72036">
        <ele>2151.57</ele>
        <time>2019-11-13T09:23:50Z</time>
      </trkpt>
      <trkpt lat="44.90933" lon="6.7203">
        <ele>2153.01</ele>
        <time>2019-11-13T09:24:05Z</time>
      </trkpt>
      <trkpt lat="44.9093" lon="6.72027">
        <ele>2155.89</ele>
        <time>2019-11-13T09:24:13Z</time>
      </trkpt>
      <trkpt lat="44.90927" lon="6.72023">
        <ele>2155.89</ele>
        <time>2019-11-13T09:24:26Z</time>
      </trkpt>
      <trkpt lat="44.90924" lon="6.72017">
        <ele>2157.82</ele>
        <time>2019-11-13T09:24:42Z</time>
      </trkpt>
      <trkpt lat="44.90919" lon="6.72012">
        <ele>2159.74</ele>
        <time>2019-11-13T09:24:58Z</time>
      </trkpt>
      <trkpt lat="44.90915" lon="6.72008">
        <ele>2161.18</ele>
        <time>2019-11-13T09:25:13Z</time>
      </trkpt>
      <trkpt lat="44.90911" lon="6.72005">
        <ele>2162.62</ele>
        <time>2019-11-13T09:25:29Z</time>
      </trkpt>
      <trkpt lat="44.90906" lon="6.72002">
        <ele>2164.06</ele>
        <time>2019-11-13T09:25:44Z</time>
      </trkpt>
      <trkpt lat="44.90901" lon="6.72">
        <ele>2165.51</ele>
        <time>2019-11-13T09:25:59Z</time>
      </trkpt>
      <trkpt lat="44.90896" lon="6.71996">
        <ele>2166.47</ele>
        <time>2019-11-13T09:26:12Z</time>
      </trkpt>
      <trkpt lat="44.90899" lon="6.71995">
        <ele>2167.91</ele>
        <time>2019-11-13T09:26:24Z</time>
      </trkpt>
      <trkpt lat="44.90904" lon="6.7199">
        <ele>2168.87</ele>
        <time>2019-11-13T09:26:38Z</time>
      </trkpt>
      <trkpt lat="44.90905" lon="6.71984">
        <ele>2170.31</ele>
        <time>2019-11-13T09:26:51Z</time>
      </trkpt>
      <trkpt lat="44.90905" lon="6.71976">
        <ele>2171.76</ele>
        <time>2019-11-13T09:27:07Z</time>
      </trkpt>
      <trkpt lat="44.90898" lon="6.71972">
        <ele>2173.2</ele>
        <time>2019-11-13T09:27:22Z</time>
      </trkpt>
      <trkpt lat="44.90893" lon="6.7197">
        <ele>2174.64</ele>
        <time>2019-11-13T09:27:37Z</time>
      </trkpt>
      <trkpt lat="44.90889" lon="6.71967">
        <ele>2176.08</ele>
        <time>2019-11-13T09:27:51Z</time>
      </trkpt>
      <trkpt lat="44.90888" lon="6.71961">
        <ele>2177.52</ele>
        <time>2019-11-13T09:28:05Z</time>
      </trkpt>
      <trkpt lat="44.90883" lon="6.71958">
        <ele>2178.97</ele>
        <time>2019-11-13T09:28:20Z</time>
      </trkpt>
      <trkpt lat="44.90879" lon="6.71955">
        <ele>2180.41</ele>
        <time>2019-11-13T09:28:35Z</time>
      </trkpt>
      <trkpt lat="44.90878" lon="6.71947">
        <ele>2181.85</ele>
        <time>2019-11-13T09:28:52Z</time>
      </trkpt>
      <trkpt lat="44.90882" lon="6.71942">
        <ele>2183.29</ele>
        <time>2019-11-13T09:29:06Z</time>
      </trkpt>
      <trkpt lat="44.90883" lon="6.71935">
        <ele>2185.21</ele>
        <time>2019-11-13T09:29:22Z</time>
      </trkpt>
      <trkpt lat="44.90881" lon="6.71926">
        <ele>2187.14</ele>
        <time>2019-11-13T09:29:37Z</time>
      </trkpt>
      <trkpt lat="44.90879" lon="6.7192">
        <ele>2188.58</ele>
        <time>2019-11-13T09:29:53Z</time>
      </trkpt>
      <trkpt lat="44.90878" lon="6.7191">
        <ele>2190.5</ele>
        <time>2019-11-13T09:30:10Z</time>
      </trkpt>
      <trkpt lat="44.90876" lon="6.71904">
        <ele>2191.94</ele>
        <time>2019-11-13T09:30:25Z</time>
      </trkpt>
      <trkpt lat="44.90874" lon="6.71899">
        <ele>2193.39</ele>
        <time>2019-11-13T09:30:39Z</time>
      </trkpt>
      <trkpt lat="44.90874" lon="6.71893">
        <ele>2194.35</ele>
        <time>2019-11-13T09:30:52Z</time>
      </trkpt>
      <trkpt lat="44.90874" lon="6.71886">
        <ele>2195.79</ele>
        <time>2019-11-13T09:31:07Z</time>
      </trkpt>
      <trkpt lat="44.90869" lon="6.71885">
        <ele>2196.75</ele>
        <time>2019-11-13T09:31:19Z</time>
      </trkpt>
      <trkpt lat="44.90864" lon="6.71882">
        <ele>2198.19</ele>
        <time>2019-11-13T09:31:34Z</time>
      </trkpt>
      <trkpt lat="44.9086" lon="6.7188">
        <ele>2199.63</ele>
        <time>2019-11-13T09:31:47Z</time>
      </trkpt>
      <trkpt lat="44.90856" lon="6.71878">
        <ele>2200.59</ele>
        <time>2019-11-13T09:32:00Z</time>
      </trkpt>
      <trkpt lat="44.90852" lon="6.71875">
        <ele>2202.04</ele>
        <time>2019-11-13T09:32:15Z</time>
      </trkpt>
      <trkpt lat="44.90851" lon="6.71872">
        <ele>2203.48</ele>
        <time>2019-11-13T09:32:29Z</time>
      </trkpt>
      <trkpt lat="44.90851" lon="6.71866">
        <ele>2204.92</ele>
        <time>2019-11-13T09:32:43Z</time>
      </trkpt>
      <trkpt lat="44.90847" lon="6.71861">
        <ele>2206.36</ele>
        <time>2019-11-13T09:32:57Z</time>
      </trkpt>
      <trkpt lat="44.90842" lon="6.7186">
        <ele>2207.81</ele>
        <time>2019-11-13T09:33:10Z</time>
      </trkpt>
      <trkpt lat="44.90837" lon="6.71856">
        <ele>2209.25</ele>
        <time>2019-11-13T09:33:25Z</time>
      </trkpt>
      <trkpt lat="44.90837" lon="6.71851">
        <ele>2210.69</ele>
        <time>2019-11-13T09:33:39Z</time>
      </trkpt>
      <trkpt lat="44.90834" lon="6.71844">
        <ele>2212.13</ele>
        <time>2019-11-13T09:33:53Z</time>
      </trkpt>
      <trkpt lat="44.9083" lon="6.71837">
        <ele>2213.57</ele>
        <time>2019-11-13T09:34:10Z</time>
      </trkpt>
      <trkpt lat="44.90827" lon="6.71829">
        <ele>2215.01</ele>
        <time>2019-11-13T09:34:25Z</time>
      </trkpt>
      <trkpt lat="44.90824" lon="6.71824">
        <ele>2215.98</ele>
        <time>2019-11-13T09:34:40Z</time>
      </trkpt>
      <trkpt lat="44.90819" lon="6.71814">
        <ele>2217.42</ele>
        <time>2019-11-13T09:34:56Z</time>
      </trkpt>
      <trkpt lat="44.90815" lon="6.71808">
        <ele>2218.86</ele>
        <time>2019-11-13T09:35:10Z</time>
      </trkpt>
      <trkpt lat="44.90812" lon="6.71801">
        <ele>2219.82</ele>
        <time>2019-11-13T09:35:25Z</time>
      </trkpt>
      <trkpt lat="44.9081" lon="6.71795">
        <ele>2221.26</ele>
        <time>2019-11-13T09:35:40Z</time>
      </trkpt>
      <trkpt lat="44.90807" lon="6.71789">
        <ele>2222.71</ele>
        <time>2019-11-13T09:35:54Z</time>
      </trkpt>
      <trkpt lat="44.90805" lon="6.71782">
        <ele>2224.15</ele>
        <time>2019-11-13T09:36:10Z</time>
      </trkpt>
      <trkpt lat="44.90802" lon="6.71776">
        <ele>2225.59</ele>
        <time>2019-11-13T09:36:25Z</time>
      </trkpt>
      <trkpt lat="44.90799" lon="6.71769">
        <ele>2227.03</ele>
        <time>2019-11-13T09:36:42Z</time>
      </trkpt>
      <trkpt lat="44.90796" lon="6.71762">
        <ele>2228.47</ele>
        <time>2019-11-13T09:36:56Z</time>
      </trkpt>
      <trkpt lat="44.90793" lon="6.71755">
        <ele>2229.92</ele>
        <time>2019-11-13T09:37:10Z</time>
      </trkpt>
      <trkpt lat="44.9079" lon="6.71749">
        <ele>2230.88</ele>
        <time>2019-11-13T09:37:25Z</time>
      </trkpt>
      <trkpt lat="44.90787" lon="6.71743">
        <ele>2232.32</ele>
        <time>2019-11-13T09:37:39Z</time>
      </trkpt>
      <trkpt lat="44.90785" lon="6.71737">
        <ele>2233.76</ele>
        <time>2019-11-13T09:37:54Z</time>
      </trkpt>
      <trkpt lat="44.90785" lon="6.71723">
        <ele>2234.72</ele>
        <time>2019-11-13T09:38:12Z</time>
      </trkpt>
      <trkpt lat="44.90785" lon="6.71716">
        <ele>2235.68</ele>
        <time>2019-11-13T09:38:27Z</time>
      </trkpt>
      <trkpt lat="44.90784" lon="6.71707">
        <ele>2237.13</ele>
        <time>2019-11-13T09:38:42Z</time>
      </trkpt>
      <trkpt lat="44.90781" lon="6.717">
        <ele>2238.09</ele>
        <time>2019-11-13T09:38:58Z</time>
      </trkpt>
      <trkpt lat="44.9078" lon="6.71694">
        <ele>2238.57</ele>
        <time>2019-11-13T09:39:14Z</time>
      </trkpt>
      <trkpt lat="44.90781" lon="6.71694">
        <ele>2239.05</ele>
        <time>2019-11-13T09:39:35Z</time>
      </trkpt>
      <trkpt lat="44.90781" lon="6.7169">
        <ele>2239.53</ele>
        <time>2019-11-13T09:39:59Z</time>
      </trkpt>
      <trkpt lat="44.90777" lon="6.71685">
        <ele>2239.53</ele>
        <time>2019-11-13T09:40:17Z</time>
      </trkpt>
      <trkpt lat="44.90776" lon="6.71683">
        <ele>2240.01</ele>
        <time>2019-11-13T09:40:23Z</time>
      </trkpt>
      <trkpt lat="44.9077" lon="6.7167">
        <ele>2240.97</ele>
        <time>2019-11-13T09:40:39Z</time>
      </trkpt>
      <trkpt lat="44.90765" lon="6.71663">
        <ele>2241.93</ele>
        <time>2019-11-13T09:40:53Z</time>
      </trkpt>
      <trkpt lat="44.90762" lon="6.71652">
        <ele>2242.89</ele>
        <time>2019-11-13T09:41:09Z</time>
      </trkpt>
      <trkpt lat="44.90757" lon="6.71644">
        <ele>2243.37</ele>
        <time>2019-11-13T09:41:24Z</time>
      </trkpt>
      <trkpt lat="44.90753" lon="6.71638">
        <ele>2244.33</ele>
        <time>2019-11-13T09:41:39Z</time>
      </trkpt>
      <trkpt lat="44.90748" lon="6.71624">
        <ele>2245.78</ele>
        <time>2019-11-13T09:41:56Z</time>
      </trkpt>
      <trkpt lat="44.90745" lon="6.71617">
        <ele>2247.22</ele>
        <time>2019-11-13T09:42:10Z</time>
      </trkpt>
      <trkpt lat="44.90742" lon="6.71608">
        <ele>2248.18</ele>
        <time>2019-11-13T09:42:25Z</time>
      </trkpt>
      <trkpt lat="44.90737" lon="6.71598">
        <ele>2249.62</ele>
        <time>2019-11-13T09:42:41Z</time>
      </trkpt>
      <trkpt lat="44.90732" lon="6.71591">
        <ele>2250.1</ele>
        <time>2019-11-13T09:42:55Z</time>
      </trkpt>
      <trkpt lat="44.90727" lon="6.71582">
        <ele>2251.54</ele>
        <time>2019-11-13T09:43:11Z</time>
      </trkpt>
      <trkpt lat="44.90723" lon="6.71573">
        <ele>2252.51</ele>
        <time>2019-11-13T09:43:26Z</time>
      </trkpt>
      <trkpt lat="44.90716" lon="6.71563">
        <ele>2253.95</ele>
        <time>2019-11-13T09:43:45Z</time>
      </trkpt>
      <trkpt lat="44.90713" lon="6.71555">
        <ele>2254.91</ele>
        <time>2019-11-13T09:43:59Z</time>
      </trkpt>
      <trkpt lat="44.9071" lon="6.71548">
        <ele>2256.35</ele>
        <time>2019-11-13T09:44:14Z</time>
      </trkpt>
      <trkpt lat="44.90705" lon="6.71539">
        <ele>2258.27</ele>
        <time>2019-11-13T09:44:32Z</time>
      </trkpt>
      <trkpt lat="44.90701" lon="6.7153">
        <ele>2259.24</ele>
        <time>2019-11-13T09:44:48Z</time>
      </trkpt>
      <trkpt lat="44.90697" lon="6.71523">
        <ele>2261.16</ele>
        <time>2019-11-13T09:45:04Z</time>
      </trkpt>
      <trkpt lat="44.90693" lon="6.7152">
        <ele>2264.04</ele>
        <time>2019-11-13T09:45:15Z</time>
      </trkpt>
      <trkpt lat="44.90689" lon="6.71512">
        <ele>2263.08</ele>
        <time>2019-11-13T09:45:32Z</time>
      </trkpt>
      <trkpt lat="44.90684" lon="6.71503">
        <ele>2264.52</ele>
        <time>2019-11-13T09:45:48Z</time>
      </trkpt>
      <trkpt lat="44.90683" lon="6.71497">
        <ele>2265.96</ele>
        <time>2019-11-13T09:46:04Z</time>
      </trkpt>
      <trkpt lat="44.90678" lon="6.7149">
        <ele>2267.41</ele>
        <time>2019-11-13T09:46:20Z</time>
      </trkpt>
      <trkpt lat="44.90675" lon="6.71481">
        <ele>2268.37</ele>
        <time>2019-11-13T09:46:37Z</time>
      </trkpt>
      <trkpt lat="44.90672" lon="6.71474">
        <ele>2269.33</ele>
        <time>2019-11-13T09:46:53Z</time>
      </trkpt>
      <trkpt lat="44.90668" lon="6.71468">
        <ele>2271.25</ele>
        <time>2019-11-13T09:47:10Z</time>
      </trkpt>
      <trkpt lat="44.90665" lon="6.71461">
        <ele>2272.69</ele>
        <time>2019-11-13T09:47:26Z</time>
      </trkpt>
      <trkpt lat="44.90661" lon="6.71454">
        <ele>2274.14</ele>
        <time>2019-11-13T09:47:42Z</time>
      </trkpt>
      <trkpt lat="44.90658" lon="6.71447">
        <ele>2275.58</ele>
        <time>2019-11-13T09:47:57Z</time>
      </trkpt>
      <trkpt lat="44.90656" lon="6.71441">
        <ele>2277.02</ele>
        <time>2019-11-13T09:48:13Z</time>
      </trkpt>
      <trkpt lat="44.90651" lon="6.71435">
        <ele>2278.94</ele>
        <time>2019-11-13T09:48:30Z</time>
      </trkpt>
      <trkpt lat="44.90649" lon="6.71426">
        <ele>2280.38</ele>
        <time>2019-11-13T09:48:48Z</time>
      </trkpt>
      <trkpt lat="44.90645" lon="6.7142">
        <ele>2281.83</ele>
        <time>2019-11-13T09:49:03Z</time>
      </trkpt>
      <trkpt lat="44.90642" lon="6.71411">
        <ele>2283.75</ele>
        <time>2019-11-13T09:49:20Z</time>
      </trkpt>
      <trkpt lat="44.90637" lon="6.71404">
        <ele>2285.19</ele>
        <time>2019-11-13T09:49:37Z</time>
      </trkpt>
      <trkpt lat="44.90635" lon="6.71397">
        <ele>2287.11</ele>
        <time>2019-11-13T09:49:51Z</time>
      </trkpt>
      <trkpt lat="44.90631" lon="6.71393">
        <ele>2287.11</ele>
        <time>2019-11-13T09:50:11Z</time>
      </trkpt>
      <trkpt lat="44.90628" lon="6.71382">
        <ele>2288.56</ele>
        <time>2019-11-13T09:50:28Z</time>
      </trkpt>
      <trkpt lat="44.90624" lon="6.71372">
        <ele>2290</ele>
        <time>2019-11-13T09:50:43Z</time>
      </trkpt>
      <trkpt lat="44.90621" lon="6.71364">
        <ele>2291.44</ele>
        <time>2019-11-13T09:50:57Z</time>
      </trkpt>
      <trkpt lat="44.90615" lon="6.71353">
        <ele>2292.88</ele>
        <time>2019-11-13T09:51:13Z</time>
      </trkpt>
      <trkpt lat="44.90611" lon="6.71343">
        <ele>2293.84</ele>
        <time>2019-11-13T09:51:28Z</time>
      </trkpt>
      <trkpt lat="44.90605" lon="6.71333">
        <ele>2295.28</ele>
        <time>2019-11-13T09:51:48Z</time>
      </trkpt>
      <trkpt lat="44.90602" lon="6.71326">
        <ele>2296.25</ele>
        <time>2019-11-13T09:52:03Z</time>
      </trkpt>
      <trkpt lat="44.90598" lon="6.71316">
        <ele>2297.21</ele>
        <time>2019-11-13T09:52:19Z</time>
      </trkpt>
      <trkpt lat="44.90594" lon="6.71306">
        <ele>2298.65</ele>
        <time>2019-11-13T09:52:37Z</time>
      </trkpt>
      <trkpt lat="44.90588" lon="6.71295">
        <ele>2299.61</ele>
        <time>2019-11-13T09:52:59Z</time>
      </trkpt>
      <trkpt lat="44.90583" lon="6.71285">
        <ele>2302.01</ele>
        <time>2019-11-13T09:53:16Z</time>
      </trkpt>
      <trkpt lat="44.90577" lon="6.71276">
        <ele>2302.98</ele>
        <time>2019-11-13T09:53:32Z</time>
      </trkpt>
      <trkpt lat="44.9057" lon="6.71265">
        <ele>2303.94</ele>
        <time>2019-11-13T09:53:48Z</time>
      </trkpt>
      <trkpt lat="44.90564" lon="6.71254">
        <ele>2304.9</ele>
        <time>2019-11-13T09:54:03Z</time>
      </trkpt>
      <trkpt lat="44.90559" lon="6.71245">
        <ele>2305.38</ele>
        <time>2019-11-13T09:54:18Z</time>
      </trkpt>
      <trkpt lat="44.90554" lon="6.71236">
        <ele>2306.82</ele>
        <time>2019-11-13T09:54:34Z</time>
      </trkpt>
      <trkpt lat="44.9055" lon="6.71227">
        <ele>2308.74</ele>
        <time>2019-11-13T09:54:51Z</time>
      </trkpt>
      <trkpt lat="44.90546" lon="6.71218">
        <ele>2309.7</ele>
        <time>2019-11-13T09:55:07Z</time>
      </trkpt>
      <trkpt lat="44.90545" lon="6.71208">
        <ele>2311.15</ele>
        <time>2019-11-13T09:55:23Z</time>
      </trkpt>
      <trkpt lat="44.90541" lon="6.71198">
        <ele>2312.11</ele>
        <time>2019-11-13T09:55:40Z</time>
      </trkpt>
      <trkpt lat="44.90539" lon="6.71189">
        <ele>2313.55</ele>
        <time>2019-11-13T09:55:56Z</time>
      </trkpt>
      <trkpt lat="44.90538" lon="6.71181">
        <ele>2314.99</ele>
        <time>2019-11-13T09:56:12Z</time>
      </trkpt>
      <trkpt lat="44.90537" lon="6.71174">
        <ele>2316.43</ele>
        <time>2019-11-13T09:56:26Z</time>
      </trkpt>
      <trkpt lat="44.90535" lon="6.71168">
        <ele>2317.4</ele>
        <time>2019-11-13T09:56:42Z</time>
      </trkpt>
      <trkpt lat="44.90533" lon="6.71165">
        <ele>2318.84</ele>
        <time>2019-11-13T09:56:55Z</time>
      </trkpt>
      <trkpt lat="44.90532" lon="6.71159">
        <ele>2319.8</ele>
        <time>2019-11-13T09:57:09Z</time>
      </trkpt>
      <trkpt lat="44.90532" lon="6.71152">
        <ele>2320.76</ele>
        <time>2019-11-13T09:57:24Z</time>
      </trkpt>
      <trkpt lat="44.9053" lon="6.71147">
        <ele>2321.72</ele>
        <time>2019-11-13T09:57:38Z</time>
      </trkpt>
      <trkpt lat="44.90528" lon="6.71138">
        <ele>2322.68</ele>
        <time>2019-11-13T09:57:55Z</time>
      </trkpt>
      <trkpt lat="44.90527" lon="6.7113">
        <ele>2324.12</ele>
        <time>2019-11-13T09:58:11Z</time>
      </trkpt>
      <trkpt lat="44.90524" lon="6.71122">
        <ele>2325.57</ele>
        <time>2019-11-13T09:58:27Z</time>
      </trkpt>
      <trkpt lat="44.90519" lon="6.71117">
        <ele>2327.01</ele>
        <time>2019-11-13T09:58:41Z</time>
      </trkpt>
      <trkpt lat="44.90519" lon="6.71114">
        <ele>2327.97</ele>
        <time>2019-11-13T09:58:59Z</time>
      </trkpt>
      <trkpt lat="44.90522" lon="6.71104">
        <ele>2328.93</ele>
        <time>2019-11-13T09:59:15Z</time>
      </trkpt>
      <trkpt lat="44.90524" lon="6.71097">
        <ele>2329.89</ele>
        <time>2019-11-13T09:59:30Z</time>
      </trkpt>
      <trkpt lat="44.90527" lon="6.71088">
        <ele>2330.85</ele>
        <time>2019-11-13T09:59:45Z</time>
      </trkpt>
      <trkpt lat="44.90528" lon="6.71081">
        <ele>2331.33</ele>
        <time>2019-11-13T09:59:56Z</time>
      </trkpt>
      <trkpt lat="44.90528" lon="6.71072">
        <ele>2332.3</ele>
        <time>2019-11-13T10:00:11Z</time>
      </trkpt>
      <trkpt lat="44.9053" lon="6.71067">
        <ele>2333.26</ele>
        <time>2019-11-13T10:00:26Z</time>
      </trkpt>
      <trkpt lat="44.9053" lon="6.7106">
        <ele>2334.7</ele>
        <time>2019-11-13T10:00:40Z</time>
      </trkpt>
      <trkpt lat="44.90531" lon="6.71054">
        <ele>2336.14</ele>
        <time>2019-11-13T10:00:55Z</time>
      </trkpt>
      <trkpt lat="44.90533" lon="6.71048">
        <ele>2337.1</ele>
        <time>2019-11-13T10:01:08Z</time>
      </trkpt>
      <trkpt lat="44.90534" lon="6.71044">
        <ele>2338.54</ele>
        <time>2019-11-13T10:01:21Z</time>
      </trkpt>
      <trkpt lat="44.90535" lon="6.71035">
        <ele>2339.51</ele>
        <time>2019-11-13T10:01:36Z</time>
      </trkpt>
      <trkpt lat="44.90536" lon="6.71029">
        <ele>2340.47</ele>
        <time>2019-11-13T10:01:50Z</time>
      </trkpt>
      <trkpt lat="44.90536" lon="6.71025">
        <ele>2341.43</ele>
        <time>2019-11-13T10:02:05Z</time>
      </trkpt>
      <trkpt lat="44.90535" lon="6.71018">
        <ele>2343.35</ele>
        <time>2019-11-13T10:02:21Z</time>
      </trkpt>
      <trkpt lat="44.90534" lon="6.71011">
        <ele>2344.31</ele>
        <time>2019-11-13T10:02:35Z</time>
      </trkpt>
      <trkpt lat="44.90533" lon="6.71003">
        <ele>2345.27</ele>
        <time>2019-11-13T10:02:50Z</time>
      </trkpt>
      <trkpt lat="44.90531" lon="6.70997">
        <ele>2346.72</ele>
        <time>2019-11-13T10:03:04Z</time>
      </trkpt>
      <trkpt lat="44.90529" lon="6.7099">
        <ele>2347.68</ele>
        <time>2019-11-13T10:03:19Z</time>
      </trkpt>
      <trkpt lat="44.90526" lon="6.70983">
        <ele>2348.64</ele>
        <time>2019-11-13T10:03:34Z</time>
      </trkpt>
      <trkpt lat="44.90523" lon="6.70974">
        <ele>2349.6</ele>
        <time>2019-11-13T10:03:51Z</time>
      </trkpt>
      <trkpt lat="44.9052" lon="6.70965">
        <ele>2351.04</ele>
        <time>2019-11-13T10:04:08Z</time>
      </trkpt>
      <trkpt lat="44.90516" lon="6.70956">
        <ele>2352.48</ele>
        <time>2019-11-13T10:04:25Z</time>
      </trkpt>
      <trkpt lat="44.90511" lon="6.70948">
        <ele>2353.44</ele>
        <time>2019-11-13T10:04:42Z</time>
      </trkpt>
      <trkpt lat="44.90507" lon="6.70942">
        <ele>2354.41</ele>
        <time>2019-11-13T10:04:57Z</time>
      </trkpt>
      <trkpt lat="44.90501" lon="6.70933">
        <ele>2355.85</ele>
        <time>2019-11-13T10:05:14Z</time>
      </trkpt>
      <trkpt lat="44.90495" lon="6.70925">
        <ele>2356.33</ele>
        <time>2019-11-13T10:05:30Z</time>
      </trkpt>
      <trkpt lat="44.90492" lon="6.70922">
        <ele>2357.77</ele>
        <time>2019-11-13T10:05:44Z</time>
      </trkpt>
      <trkpt lat="44.90491" lon="6.70915">
        <ele>2358.73</ele>
        <time>2019-11-13T10:05:59Z</time>
      </trkpt>
      <trkpt lat="44.9049" lon="6.70911">
        <ele>2360.65</ele>
        <time>2019-11-13T10:06:13Z</time>
      </trkpt>
      <trkpt lat="44.90492" lon="6.70904">
        <ele>2361.62</ele>
        <time>2019-11-13T10:06:29Z</time>
      </trkpt>
      <trkpt lat="44.90491" lon="6.70897">
        <ele>2363.06</ele>
        <time>2019-11-13T10:06:46Z</time>
      </trkpt>
      <trkpt lat="44.9049" lon="6.70889">
        <ele>2363.54</ele>
        <time>2019-11-13T10:07:00Z</time>
      </trkpt>
      <trkpt lat="44.90489" lon="6.70882">
        <ele>2364.98</ele>
        <time>2019-11-13T10:07:15Z</time>
      </trkpt>
      <trkpt lat="44.90489" lon="6.70878">
        <ele>2365.94</ele>
        <time>2019-11-13T10:07:29Z</time>
      </trkpt>
      <trkpt lat="44.90487" lon="6.70872">
        <ele>2366.9</ele>
        <time>2019-11-13T10:07:43Z</time>
      </trkpt>
      <trkpt lat="44.90485" lon="6.70866">
        <ele>2368.83</ele>
        <time>2019-11-13T10:07:59Z</time>
      </trkpt>
      <trkpt lat="44.90487" lon="6.7086">
        <ele>2369.79</ele>
        <time>2019-11-13T10:08:14Z</time>
      </trkpt>
      <trkpt lat="44.90484" lon="6.70853">
        <ele>2371.23</ele>
        <time>2019-11-13T10:08:27Z</time>
      </trkpt>
      <trkpt lat="44.90481" lon="6.70848">
        <ele>2372.19</ele>
        <time>2019-11-13T10:08:42Z</time>
      </trkpt>
      <trkpt lat="44.90483" lon="6.70844">
        <ele>2374.11</ele>
        <time>2019-11-13T10:08:56Z</time>
      </trkpt>
      <trkpt lat="44.90484" lon="6.70837">
        <ele>2375.07</ele>
        <time>2019-11-13T10:09:11Z</time>
      </trkpt>
      <trkpt lat="44.90483" lon="6.70829">
        <ele>2376.52</ele>
        <time>2019-11-13T10:09:25Z</time>
      </trkpt>
      <trkpt lat="44.90481" lon="6.7082">
        <ele>2377.48</ele>
        <time>2019-11-13T10:09:43Z</time>
      </trkpt>
      <trkpt lat="44.90479" lon="6.70811">
        <ele>2378.44</ele>
        <time>2019-11-13T10:09:58Z</time>
      </trkpt>
      <trkpt lat="44.90477" lon="6.70804">
        <ele>2378.92</ele>
        <time>2019-11-13T10:10:12Z</time>
      </trkpt>
      <trkpt lat="44.90477" lon="6.70804">
        <ele>2378.92</ele>
        <time>2019-11-13T10:10:32Z</time>
      </trkpt>
      <trkpt lat="44.90478" lon="6.70803">
        <ele>2379.4</ele>
        <time>2019-11-13T10:10:55Z</time>
      </trkpt>
      <trkpt lat="44.90479" lon="6.70804">
        <ele>2379.4</ele>
        <time>2019-11-13T10:11:15Z</time>
      </trkpt>
      <trkpt lat="44.90479" lon="6.70805">
        <ele>2378.44</ele>
        <time>2019-11-13T10:11:35Z</time>
      </trkpt>
      <trkpt lat="44.9048" lon="6.70803">
        <ele>2378.44</ele>
        <time>2019-11-13T10:12:10Z</time>
      </trkpt>
      <trkpt lat="44.90481" lon="6.70802">
        <ele>2378.44</ele>
        <time>2019-11-13T10:12:45Z</time>
      </trkpt>
      <trkpt lat="44.90481" lon="6.70802">
        <ele>2378.44</ele>
        <time>2019-11-13T10:13:17Z</time>
      </trkpt>
      <trkpt lat="44.90479" lon="6.70804">
        <ele>2378.44</ele>
        <time>2019-11-13T10:13:55Z</time>
      </trkpt>
      <trkpt lat="44.90479" lon="6.70803">
        <ele>2378.44</ele>
        <time>2019-11-13T10:14:29Z</time>
      </trkpt>
      <trkpt lat="44.9048" lon="6.70803">
        <ele>2379.4</ele>
        <time>2019-11-13T10:14:31Z</time>
      </trkpt>
      <trkpt lat="44.90477" lon="6.70801">
        <ele>2379.88</ele>
        <time>2019-11-13T10:14:50Z</time>
      </trkpt>
      <trkpt lat="44.90477" lon="6.708">
        <ele>2379.88</ele>
        <time>2019-11-13T10:15:20Z</time>
      </trkpt>
      <trkpt lat="44.90476" lon="6.708">
        <ele>2380.36</ele>
        <time>2019-11-13T10:15:43Z</time>
      </trkpt>
      <trkpt lat="44.90476" lon="6.70801">
        <ele>2380.36</ele>
        <time>2019-11-13T10:16:03Z</time>
      </trkpt>
      <trkpt lat="44.90475" lon="6.70803">
        <ele>2380.36</ele>
        <time>2019-11-13T10:16:19Z</time>
      </trkpt>
      <trkpt lat="44.9047" lon="6.70802">
        <ele>2379.88</ele>
        <time>2019-11-13T10:16:32Z</time>
      </trkpt>
      <trkpt lat="44.90468" lon="6.70809">
        <ele>2379.4</ele>
        <time>2019-11-13T10:16:49Z</time>
      </trkpt>
      <trkpt lat="44.90463" lon="6.70816">
        <ele>2381.32</ele>
        <time>2019-11-13T10:17:02Z</time>
      </trkpt>
      <trkpt lat="44.90466" lon="6.7082">
        <ele>2382.28</ele>
        <time>2019-11-13T10:17:16Z</time>
      </trkpt>
      <trkpt lat="44.90465" lon="6.70821">
        <ele>2382.28</ele>
        <time>2019-11-13T10:17:33Z</time>
      </trkpt>
      <trkpt lat="44.90462" lon="6.7083">
        <ele>2381.8</ele>
        <time>2019-11-13T10:17:49Z</time>
      </trkpt>
      <trkpt lat="44.90456" lon="6.7084">
        <ele>2381.8</ele>
        <time>2019-11-13T10:18:04Z</time>
      </trkpt>
      <trkpt lat="44.90452" lon="6.70849">
        <ele>2382.76</ele>
        <time>2019-11-13T10:18:17Z</time>
      </trkpt>
      <trkpt lat="44.90448" lon="6.70857">
        <ele>2382.76</ele>
        <time>2019-11-13T10:18:30Z</time>
      </trkpt>
      <trkpt lat="44.90442" lon="6.70865">
        <ele>2382.28</ele>
        <time>2019-11-13T10:18:43Z</time>
      </trkpt>
      <trkpt lat="44.90434" lon="6.70876">
        <ele>2382.76</ele>
        <time>2019-11-13T10:19:00Z</time>
      </trkpt>
      <trkpt lat="44.90429" lon="6.70881">
        <ele>2382.28</ele>
        <time>2019-11-13T10:19:09Z</time>
      </trkpt>
      <trkpt lat="44.90421" lon="6.70888">
        <ele>2381.32</ele>
        <time>2019-11-13T10:19:23Z</time>
      </trkpt>
      <trkpt lat="44.90419" lon="6.7089">
        <ele>2380.84</ele>
        <time>2019-11-13T10:19:27Z</time>
      </trkpt>
      <trkpt lat="44.90412" lon="6.70899">
        <ele>2382.76</ele>
        <time>2019-11-13T10:19:42Z</time>
      </trkpt>
      <trkpt lat="44.90406" lon="6.70909">
        <ele>2381.8</ele>
        <time>2019-11-13T10:19:56Z</time>
      </trkpt>
      <trkpt lat="44.90397" lon="6.7092">
        <ele>2381.32</ele>
        <time>2019-11-13T10:20:11Z</time>
      </trkpt>
      <trkpt lat="44.9039" lon="6.70929">
        <ele>2380.84</ele>
        <time>2019-11-13T10:20:25Z</time>
      </trkpt>
      <trkpt lat="44.90382" lon="6.70937">
        <ele>2382.28</ele>
        <time>2019-11-13T10:20:41Z</time>
      </trkpt>
      <trkpt lat="44.9038" lon="6.70949">
        <ele>2382.76</ele>
        <time>2019-11-13T10:20:55Z</time>
      </trkpt>
      <trkpt lat="44.90377" lon="6.70962">
        <ele>2382.28</ele>
        <time>2019-11-13T10:21:09Z</time>
      </trkpt>
      <trkpt lat="44.90374" lon="6.70976">
        <ele>2382.76</ele>
        <time>2019-11-13T10:21:24Z</time>
      </trkpt>
      <trkpt lat="44.90373" lon="6.7099">
        <ele>2382.76</ele>
        <time>2019-11-13T10:21:39Z</time>
      </trkpt>
      <trkpt lat="44.90371" lon="6.71006">
        <ele>2383.25</ele>
        <time>2019-11-13T10:21:53Z</time>
      </trkpt>
      <trkpt lat="44.90369" lon="6.7102">
        <ele>2383.73</ele>
        <time>2019-11-13T10:22:09Z</time>
      </trkpt>
      <trkpt lat="44.90364" lon="6.71031">
        <ele>2384.69</ele>
        <time>2019-11-13T10:22:23Z</time>
      </trkpt>
      <trkpt lat="44.90359" lon="6.71042">
        <ele>2385.65</ele>
        <time>2019-11-13T10:22:38Z</time>
      </trkpt>
      <trkpt lat="44.90353" lon="6.71051">
        <ele>2386.61</ele>
        <time>2019-11-13T10:22:53Z</time>
      </trkpt>
      <trkpt lat="44.9035" lon="6.71061">
        <ele>2387.57</ele>
        <time>2019-11-13T10:23:09Z</time>
      </trkpt>
      <trkpt lat="44.90346" lon="6.7107">
        <ele>2388.53</ele>
        <time>2019-11-13T10:23:23Z</time>
      </trkpt>
      <trkpt lat="44.90344" lon="6.7108">
        <ele>2389.97</ele>
        <time>2019-11-13T10:23:37Z</time>
      </trkpt>
      <trkpt lat="44.90341" lon="6.71088">
        <ele>2391.42</ele>
        <time>2019-11-13T10:23:52Z</time>
      </trkpt>
      <trkpt lat="44.90337" lon="6.71097">
        <ele>2392.86</ele>
        <time>2019-11-13T10:24:09Z</time>
      </trkpt>
      <trkpt lat="44.90331" lon="6.71106">
        <ele>2394.3</ele>
        <time>2019-11-13T10:24:26Z</time>
      </trkpt>
      <trkpt lat="44.90325" lon="6.71114">
        <ele>2395.26</ele>
        <time>2019-11-13T10:24:42Z</time>
      </trkpt>
      <trkpt lat="44.90318" lon="6.71122">
        <ele>2396.7</ele>
        <time>2019-11-13T10:25:02Z</time>
      </trkpt>
      <trkpt lat="44.90312" lon="6.71129">
        <ele>2398.63</ele>
        <time>2019-11-13T10:25:20Z</time>
      </trkpt>
      <trkpt lat="44.90306" lon="6.71133">
        <ele>2399.59</ele>
        <time>2019-11-13T10:25:36Z</time>
      </trkpt>
      <trkpt lat="44.90297" lon="6.71138">
        <ele>2400.55</ele>
        <time>2019-11-13T10:25:52Z</time>
      </trkpt>
      <trkpt lat="44.90291" lon="6.71147">
        <ele>2401.51</ele>
        <time>2019-11-13T10:26:11Z</time>
      </trkpt>
      <trkpt lat="44.90288" lon="6.71153">
        <ele>2402.95</ele>
        <time>2019-11-13T10:26:28Z</time>
      </trkpt>
      <trkpt lat="44.90283" lon="6.71159">
        <ele>2403.43</ele>
        <time>2019-11-13T10:26:45Z</time>
      </trkpt>
      <trkpt lat="44.90283" lon="6.71163">
        <ele>2403.91</ele>
        <time>2019-11-13T10:27:04Z</time>
      </trkpt>
      <trkpt lat="44.90284" lon="6.71162">
        <ele>2403.91</ele>
        <time>2019-11-13T10:27:24Z</time>
      </trkpt>
      <trkpt lat="44.90284" lon="6.71163">
        <ele>2402.95</ele>
        <time>2019-11-13T10:27:43Z</time>
      </trkpt>
      <trkpt lat="44.90285" lon="6.71162">
        <ele>2402.95</ele>
        <time>2019-11-13T10:28:03Z</time>
      </trkpt>
      <trkpt lat="44.90283" lon="6.71159">
        <ele>2402.47</ele>
        <time>2019-11-13T10:28:23Z</time>
      </trkpt>
      <trkpt lat="44.90283" lon="6.71159">
        <ele>2402.95</ele>
        <time>2019-11-13T10:28:41Z</time>
      </trkpt>
      <trkpt lat="44.90284" lon="6.71161">
        <ele>2402.95</ele>
        <time>2019-11-13T10:28:58Z</time>
      </trkpt>
      <trkpt lat="44.90283" lon="6.71159">
        <ele>2401.99</ele>
        <time>2019-11-13T10:29:26Z</time>
      </trkpt>
      <trkpt lat="44.90282" lon="6.7116">
        <ele>2402.47</ele>
        <time>2019-11-13T10:29:54Z</time>
      </trkpt>
      <trkpt lat="44.90281" lon="6.7116">
        <ele>2402.47</ele>
        <time>2019-11-13T10:30:27Z</time>
      </trkpt>
      <trkpt lat="44.9028" lon="6.7116">
        <ele>2402.47</ele>
        <time>2019-11-13T10:31:03Z</time>
      </trkpt>
      <trkpt lat="44.90282" lon="6.7116">
        <ele>2402.95</ele>
        <time>2019-11-13T10:31:41Z</time>
      </trkpt>
      <trkpt lat="44.90282" lon="6.71161">
        <ele>2402.95</ele>
        <time>2019-11-13T10:32:24Z</time>
      </trkpt>
      <trkpt lat="44.90282" lon="6.7116">
        <ele>2402.95</ele>
        <time>2019-11-13T10:33:13Z</time>
      </trkpt>
      <trkpt lat="44.90282" lon="6.71161">
        <ele>2403.43</ele>
        <time>2019-11-13T10:34:02Z</time>
      </trkpt>
      <trkpt lat="44.90281" lon="6.71161">
        <ele>2403.43</ele>
        <time>2019-11-13T10:34:36Z</time>
      </trkpt>
      <trkpt lat="44.90281" lon="6.71161">
        <ele>2403.91</ele>
        <time>2019-11-13T10:35:10Z</time>
      </trkpt>
      <trkpt lat="44.90282" lon="6.71162">
        <ele>2403.91</ele>
        <time>2019-11-13T10:35:56Z</time>
      </trkpt>
      <trkpt lat="44.90281" lon="6.71161">
        <ele>2403.91</ele>
        <time>2019-11-13T10:36:36Z</time>
      </trkpt>
      <trkpt lat="44.90281" lon="6.71161">
        <ele>2404.39</ele>
        <time>2019-11-13T10:37:12Z</time>
      </trkpt>
      <trkpt lat="44.9028" lon="6.71162">
        <ele>2403.91</ele>
        <time>2019-11-13T10:37:46Z</time>
      </trkpt>
      <trkpt lat="44.90279" lon="6.71162">
        <ele>2403.91</ele>
        <time>2019-11-13T10:38:18Z</time>
      </trkpt>
      <trkpt lat="44.9028" lon="6.71161">
        <ele>2403.91</ele>
        <time>2019-11-13T10:38:43Z</time>
      </trkpt>
      <trkpt lat="44.90281" lon="6.71161">
        <ele>2404.39</ele>
        <time>2019-11-13T10:39:10Z</time>
      </trkpt>
      <trkpt lat="44.90283" lon="6.71162">
        <ele>2404.39</ele>
        <time>2019-11-13T10:39:50Z</time>
      </trkpt>
      <trkpt lat="44.90281" lon="6.71162">
        <ele>2404.39</ele>
        <time>2019-11-13T10:40:23Z</time>
      </trkpt>
      <trkpt lat="44.90281" lon="6.71162">
        <ele>2404.88</ele>
        <time>2019-11-13T10:40:50Z</time>
      </trkpt>
      <trkpt lat="44.90281" lon="6.71161">
        <ele>2404.39</ele>
        <time>2019-11-13T10:41:36Z</time>
      </trkpt>
      <trkpt lat="44.90281" lon="6.71161">
        <ele>2404.39</ele>
        <time>2019-11-13T10:42:14Z</time>
      </trkpt>
      <trkpt lat="44.90281" lon="6.71161">
        <ele>2403.91</ele>
        <time>2019-11-13T10:42:53Z</time>
      </trkpt>
      <trkpt lat="44.90281" lon="6.71161">
        <ele>2404.39</ele>
        <time>2019-11-13T10:43:24Z</time>
      </trkpt>
      <trkpt lat="44.9028" lon="6.71161">
        <ele>2403.91</ele>
        <time>2019-11-13T10:43:50Z</time>
      </trkpt>
      <trkpt lat="44.90281" lon="6.71161">
        <ele>2403.43</ele>
        <time>2019-11-13T10:44:16Z</time>
      </trkpt>
      <trkpt lat="44.90281" lon="6.71161">
        <ele>2403.43</ele>
        <time>2019-11-13T10:44:51Z</time>
      </trkpt>
      <trkpt lat="44.90282" lon="6.7116">
        <ele>2402.95</ele>
        <time>2019-11-13T10:45:23Z</time>
      </trkpt>
      <trkpt lat="44.90281" lon="6.71161">
        <ele>2402.95</ele>
        <time>2019-11-13T10:45:58Z</time>
      </trkpt>
      <trkpt lat="44.90281" lon="6.71161">
        <ele>2402.47</ele>
        <time>2019-11-13T10:46:24Z</time>
      </trkpt>
      <trkpt lat="44.90282" lon="6.71161">
        <ele>2402.47</ele>
        <time>2019-11-13T10:46:45Z</time>
      </trkpt>
      <trkpt lat="44.90282" lon="6.71162">
        <ele>2402.47</ele>
        <time>2019-11-13T10:47:14Z</time>
      </trkpt>
      <trkpt lat="44.9028" lon="6.71161">
        <ele>2402.47</ele>
        <time>2019-11-13T10:47:42Z</time>
      </trkpt>
      <trkpt lat="44.90281" lon="6.71162">
        <ele>2402.47</ele>
        <time>2019-11-13T10:48:18Z</time>
      </trkpt>
      <trkpt lat="44.90281" lon="6.71163">
        <ele>2402.47</ele>
        <time>2019-11-13T10:49:09Z</time>
      </trkpt>
      <trkpt lat="44.90281" lon="6.71163">
        <ele>2403.43</ele>
        <time>2019-11-13T10:49:53Z</time>
      </trkpt>
      <trkpt lat="44.90283" lon="6.71162">
        <ele>2403.43</ele>
        <time>2019-11-13T10:50:29Z</time>
      </trkpt>
      <trkpt lat="44.90282" lon="6.71164">
        <ele>2403.43</ele>
        <time>2019-11-13T10:51:04Z</time>
      </trkpt>
      <trkpt lat="44.90282" lon="6.71163">
        <ele>2402.95</ele>
        <time>2019-11-13T10:51:47Z</time>
      </trkpt>
      <trkpt lat="44.90283" lon="6.71163">
        <ele>2403.91</ele>
        <time>2019-11-13T10:52:13Z</time>
      </trkpt>
      <trkpt lat="44.90282" lon="6.71162">
        <ele>2403.91</ele>
        <time>2019-11-13T10:52:33Z</time>
      </trkpt>
      <trkpt lat="44.90283" lon="6.71161">
        <ele>2403.91</ele>
        <time>2019-11-13T10:52:49Z</time>
      </trkpt>
      <trkpt lat="44.90283" lon="6.71163">
        <ele>2403.91</ele>
        <time>2019-11-13T10:53:15Z</time>
      </trkpt>
      <trkpt lat="44.90283" lon="6.71162">
        <ele>2403.91</ele>
        <time>2019-11-13T10:53:34Z</time>
      </trkpt>
      <trkpt lat="44.90283" lon="6.71162">
        <ele>2403.91</ele>
        <time>2019-11-13T10:53:49Z</time>
      </trkpt>
      <trkpt lat="44.90283" lon="6.71162">
        <ele>2403.91</ele>
        <time>2019-11-13T10:54:06Z</time>
      </trkpt>
      <trkpt lat="44.90282" lon="6.71162">
        <ele>2403.91</ele>
        <time>2019-11-13T10:54:28Z</time>
      </trkpt>
      <trkpt lat="44.9028" lon="6.71162">
        <ele>2403.43</ele>
        <time>2019-11-13T10:54:46Z</time>
      </trkpt>
      <trkpt lat="44.90282" lon="6.71161">
        <ele>2403.43</ele>
        <time>2019-11-13T10:55:04Z</time>
      </trkpt>
      <trkpt lat="44.90281" lon="6.71163">
        <ele>2403.91</ele>
        <time>2019-11-13T10:55:22Z</time>
      </trkpt>
      <trkpt lat="44.90284" lon="6.71168">
        <ele>2402.95</ele>
        <time>2019-11-13T10:55:39Z</time>
      </trkpt>
      <trkpt lat="44.90287" lon="6.71169">
        <ele>2402.95</ele>
        <time>2019-11-13T10:55:58Z</time>
      </trkpt>
      <trkpt lat="44.90287" lon="6.71171">
        <ele>2402.95</ele>
        <time>2019-11-13T10:56:20Z</time>
      </trkpt>
      <trkpt lat="44.90291" lon="6.7117">
        <ele>2402.47</ele>
        <time>2019-11-13T10:56:36Z</time>
      </trkpt>
      <trkpt lat="44.90292" lon="6.71171">
        <ele>2402.47</ele>
        <time>2019-11-13T10:56:40Z</time>
      </trkpt>
      <trkpt lat="44.90301" lon="6.71184">
        <ele>2398.63</ele>
        <time>2019-11-13T10:56:44Z</time>
      </trkpt>
      <trkpt lat="44.90302" lon="6.71188">
        <ele>2398.15</ele>
        <time>2019-11-13T10:56:45Z</time>
      </trkpt>
      <trkpt lat="44.90309" lon="6.71188">
        <ele>2395.74</ele>
        <time>2019-11-13T10:56:51Z</time>
      </trkpt>
      <trkpt lat="44.90308" lon="6.71188">
        <ele>2395.74</ele>
        <time>2019-11-13T10:57:09Z</time>
      </trkpt>
      <trkpt lat="44.90309" lon="6.71188">
        <ele>2395.74</ele>
        <time>2019-11-13T10:57:29Z</time>
      </trkpt>
      <trkpt lat="44.90308" lon="6.71188">
        <ele>2395.74</ele>
        <time>2019-11-13T10:57:53Z</time>
      </trkpt>
      <trkpt lat="44.90309" lon="6.71189">
        <ele>2396.22</ele>
        <time>2019-11-13T10:58:16Z</time>
      </trkpt>
      <trkpt lat="44.9032" lon="6.71188">
        <ele>2394.3</ele>
        <time>2019-11-13T10:58:26Z</time>
      </trkpt>
      <trkpt lat="44.90326" lon="6.71199">
        <ele>2389.97</ele>
        <time>2019-11-13T10:58:29Z</time>
      </trkpt>
      <trkpt lat="44.90332" lon="6.71201">
        <ele>2386.13</ele>
        <time>2019-11-13T10:58:31Z</time>
      </trkpt>
      <trkpt lat="44.90336" lon="6.71212">
        <ele>2383.25</ele>
        <time>2019-11-13T10:58:36Z</time>
      </trkpt>
      <trkpt lat="44.90341" lon="6.71227">
        <ele>2378.92</ele>
        <time>2019-11-13T10:58:40Z</time>
      </trkpt>
      <trkpt lat="44.9035" lon="6.71231">
        <ele>2375.07</ele>
        <time>2019-11-13T10:58:43Z</time>
      </trkpt>
      <trkpt lat="44.90352" lon="6.71229">
        <ele>2374.59</ele>
        <time>2019-11-13T10:58:54Z</time>
      </trkpt>
      <trkpt lat="44.90349" lon="6.71228">
        <ele>2375.55</ele>
        <time>2019-11-13T10:59:16Z</time>
      </trkpt>
      <trkpt lat="44.90349" lon="6.71229">
        <ele>2375.55</ele>
        <time>2019-11-13T10:59:17Z</time>
      </trkpt>
      <trkpt lat="44.90353" lon="6.71239">
        <ele>2371.71</ele>
        <time>2019-11-13T10:59:21Z</time>
      </trkpt>
      <trkpt lat="44.9036" lon="6.7125">
        <ele>2366.9</ele>
        <time>2019-11-13T10:59:25Z</time>
      </trkpt>
      <trkpt lat="44.90359" lon="6.71255">
        <ele>2364.5</ele>
        <time>2019-11-13T10:59:27Z</time>
      </trkpt>
      <trkpt lat="44.90364" lon="6.71257">
        <ele>2362.1</ele>
        <time>2019-11-13T10:59:30Z</time>
      </trkpt>
      <trkpt lat="44.90364" lon="6.71256">
        <ele>2363.54</ele>
        <time>2019-11-13T10:59:43Z</time>
      </trkpt>
      <trkpt lat="44.90366" lon="6.71256">
        <ele>2362.1</ele>
        <time>2019-11-13T10:59:44Z</time>
      </trkpt>
      <trkpt lat="44.90372" lon="6.71266">
        <ele>2356.81</ele>
        <time>2019-11-13T10:59:47Z</time>
      </trkpt>
      <trkpt lat="44.90372" lon="6.71271">
        <ele>2356.81</ele>
        <time>2019-11-13T10:59:48Z</time>
      </trkpt>
      <trkpt lat="44.90379" lon="6.71279">
        <ele>2351.52</ele>
        <time>2019-11-13T10:59:51Z</time>
      </trkpt>
      <trkpt lat="44.90379" lon="6.71284">
        <ele>2351.04</ele>
        <time>2019-11-13T10:59:52Z</time>
      </trkpt>
      <trkpt lat="44.90378" lon="6.71292">
        <ele>2348.64</ele>
        <time>2019-11-13T10:59:54Z</time>
      </trkpt>
      <trkpt lat="44.90388" lon="6.71303">
        <ele>2344.31</ele>
        <time>2019-11-13T10:59:58Z</time>
      </trkpt>
      <trkpt lat="44.90391" lon="6.71305">
        <ele>2342.39</ele>
        <time>2019-11-13T10:59:59Z</time>
      </trkpt>
      <trkpt lat="44.90407" lon="6.71313">
        <ele>2335.66</ele>
        <time>2019-11-13T11:00:03Z</time>
      </trkpt>
      <trkpt lat="44.90411" lon="6.71321">
        <ele>2332.3</ele>
        <time>2019-11-13T11:00:05Z</time>
      </trkpt>
      <trkpt lat="44.90415" lon="6.71323">
        <ele>2332.3</ele>
        <time>2019-11-13T11:00:06Z</time>
      </trkpt>
      <trkpt lat="44.90421" lon="6.71331">
        <ele>2327.97</ele>
        <time>2019-11-13T11:00:08Z</time>
      </trkpt>
      <trkpt lat="44.90429" lon="6.71331">
        <ele>2322.68</ele>
        <time>2019-11-13T11:00:11Z</time>
      </trkpt>
      <trkpt lat="44.90429" lon="6.7133">
        <ele>2324.12</ele>
        <time>2019-11-13T11:00:12Z</time>
      </trkpt>
      <trkpt lat="44.90428" lon="6.7133">
        <ele>2325.57</ele>
        <time>2019-11-13T11:00:14Z</time>
      </trkpt>
      <trkpt lat="44.90428" lon="6.7133">
        <ele>2324.12</ele>
        <time>2019-11-13T11:00:34Z</time>
      </trkpt>
      <trkpt lat="44.90427" lon="6.71331">
        <ele>2324.61</ele>
        <time>2019-11-13T11:00:56Z</time>
      </trkpt>
      <trkpt lat="44.90428" lon="6.71329">
        <ele>2324.12</ele>
        <time>2019-11-13T11:01:18Z</time>
      </trkpt>
      <trkpt lat="44.90427" lon="6.71329">
        <ele>2324.61</ele>
        <time>2019-11-13T11:01:37Z</time>
      </trkpt>
      <trkpt lat="44.90434" lon="6.71323">
        <ele>2322.2</ele>
        <time>2019-11-13T11:01:50Z</time>
      </trkpt>
      <trkpt lat="44.90447" lon="6.71328">
        <ele>2318.36</ele>
        <time>2019-11-13T11:01:54Z</time>
      </trkpt>
      <trkpt lat="44.90453" lon="6.71332">
        <ele>2314.99</ele>
        <time>2019-11-13T11:01:57Z</time>
      </trkpt>
      <trkpt lat="44.90453" lon="6.71332">
        <ele>2314.99</ele>
        <time>2019-11-13T11:01:58Z</time>
      </trkpt>
      <trkpt lat="44.90452" lon="6.71334">
        <ele>2315.47</ele>
        <time>2019-11-13T11:02:17Z</time>
      </trkpt>
      <trkpt lat="44.90451" lon="6.71334">
        <ele>2314.99</ele>
        <time>2019-11-13T11:02:36Z</time>
      </trkpt>
      <trkpt lat="44.9045" lon="6.71333">
        <ele>2314.99</ele>
        <time>2019-11-13T11:02:59Z</time>
      </trkpt>
      <trkpt lat="44.90454" lon="6.71335">
        <ele>2314.51</ele>
        <time>2019-11-13T11:03:04Z</time>
      </trkpt>
      <trkpt lat="44.90471" lon="6.71335">
        <ele>2312.11</ele>
        <time>2019-11-13T11:03:13Z</time>
      </trkpt>
      <trkpt lat="44.90477" lon="6.71337">
        <ele>2310.67</ele>
        <time>2019-11-13T11:03:15Z</time>
      </trkpt>
      <trkpt lat="44.90492" lon="6.71348">
        <ele>2306.34</ele>
        <time>2019-11-13T11:03:19Z</time>
      </trkpt>
      <trkpt lat="44.90504" lon="6.71362">
        <ele>2302.49</ele>
        <time>2019-11-13T11:03:23Z</time>
      </trkpt>
      <trkpt lat="44.90515" lon="6.71368">
        <ele>2299.61</ele>
        <time>2019-11-13T11:03:26Z</time>
      </trkpt>
      <trkpt lat="44.90525" lon="6.71378">
        <ele>2295.77</ele>
        <time>2019-11-13T11:03:29Z</time>
      </trkpt>
      <trkpt lat="44.90535" lon="6.71392">
        <ele>2292.4</ele>
        <time>2019-11-13T11:03:33Z</time>
      </trkpt>
      <trkpt lat="44.90545" lon="6.71401">
        <ele>2289.04</ele>
        <time>2019-11-13T11:03:36Z</time>
      </trkpt>
      <trkpt lat="44.90549" lon="6.71403">
        <ele>2287.59</ele>
        <time>2019-11-13T11:03:37Z</time>
      </trkpt>
      <trkpt lat="44.90565" lon="6.71423">
        <ele>2282.79</ele>
        <time>2019-11-13T11:03:43Z</time>
      </trkpt>
      <trkpt lat="44.90569" lon="6.71431">
        <ele>2280.38</ele>
        <time>2019-11-13T11:03:47Z</time>
      </trkpt>
      <trkpt lat="44.90568" lon="6.71431">
        <ele>2281.35</ele>
        <time>2019-11-13T11:04:03Z</time>
      </trkpt>
      <trkpt lat="44.90568" lon="6.71431">
        <ele>2281.35</ele>
        <time>2019-11-13T11:04:30Z</time>
      </trkpt>
      <trkpt lat="44.90569" lon="6.7143">
        <ele>2280.87</ele>
        <time>2019-11-13T11:04:53Z</time>
      </trkpt>
      <trkpt lat="44.90569" lon="6.7143">
        <ele>2280.87</ele>
        <time>2019-11-13T11:05:16Z</time>
      </trkpt>
      <trkpt lat="44.90568" lon="6.71431">
        <ele>2280.87</ele>
        <time>2019-11-13T11:05:34Z</time>
      </trkpt>
      <trkpt lat="44.90568" lon="6.71429">
        <ele>2280.87</ele>
        <time>2019-11-13T11:05:58Z</time>
      </trkpt>
      <trkpt lat="44.90567" lon="6.71429">
        <ele>2279.42</ele>
        <time>2019-11-13T11:06:05Z</time>
      </trkpt>
      <trkpt lat="44.90565" lon="6.71429">
        <ele>2279.9</ele>
        <time>2019-11-13T11:06:33Z</time>
      </trkpt>
      <trkpt lat="44.90565" lon="6.7143">
        <ele>2279.9</ele>
        <time>2019-11-13T11:07:06Z</time>
      </trkpt>
      <trkpt lat="44.90565" lon="6.7143">
        <ele>2279.9</ele>
        <time>2019-11-13T11:07:28Z</time>
      </trkpt>
      <trkpt lat="44.90565" lon="6.7143">
        <ele>2279.9</ele>
        <time>2019-11-13T11:07:49Z</time>
      </trkpt>
      <trkpt lat="44.90565" lon="6.71433">
        <ele>2281.35</ele>
        <time>2019-11-13T11:08:06Z</time>
      </trkpt>
      <trkpt lat="44.90566" lon="6.71434">
        <ele>2281.35</ele>
        <time>2019-11-13T11:08:09Z</time>
      </trkpt>
      <trkpt lat="44.90562" lon="6.71448">
        <ele>2277.98</ele>
        <time>2019-11-13T11:08:13Z</time>
      </trkpt>
      <trkpt lat="44.90559" lon="6.71458">
        <ele>2276.54</ele>
        <time>2019-11-13T11:08:16Z</time>
      </trkpt>
      <trkpt lat="44.90562" lon="6.71474">
        <ele>2275.1</ele>
        <time>2019-11-13T11:08:19Z</time>
      </trkpt>
      <trkpt lat="44.90565" lon="6.71501">
        <ele>2271.73</ele>
        <time>2019-11-13T11:08:24Z</time>
      </trkpt>
      <trkpt lat="44.90564" lon="6.71527">
        <ele>2269.81</ele>
        <time>2019-11-13T11:08:29Z</time>
      </trkpt>
      <trkpt lat="44.90564" lon="6.71532">
        <ele>2269.33</ele>
        <time>2019-11-13T11:08:30Z</time>
      </trkpt>
      <trkpt lat="44.9057" lon="6.7155">
        <ele>2264.52</ele>
        <time>2019-11-13T11:08:34Z</time>
      </trkpt>
      <trkpt lat="44.90579" lon="6.71569">
        <ele>2260.68</ele>
        <time>2019-11-13T11:08:37Z</time>
      </trkpt>
      <trkpt lat="44.90582" lon="6.71575">
        <ele>2258.75</ele>
        <time>2019-11-13T11:08:38Z</time>
      </trkpt>
      <trkpt lat="44.90587" lon="6.71587">
        <ele>2256.83</ele>
        <time>2019-11-13T11:08:40Z</time>
      </trkpt>
      <trkpt lat="44.90601" lon="6.71617">
        <ele>2251.54</ele>
        <time>2019-11-13T11:08:45Z</time>
      </trkpt>
      <trkpt lat="44.90604" lon="6.71623">
        <ele>2249.62</ele>
        <time>2019-11-13T11:08:46Z</time>
      </trkpt>
      <trkpt lat="44.90607" lon="6.71651">
        <ele>2242.89</ele>
        <time>2019-11-13T11:08:51Z</time>
      </trkpt>
      <trkpt lat="44.90609" lon="6.71661">
        <ele>2239.53</ele>
        <time>2019-11-13T11:08:53Z</time>
      </trkpt>
      <trkpt lat="44.90612" lon="6.71672">
        <ele>2236.16</ele>
        <time>2019-11-13T11:08:55Z</time>
      </trkpt>
      <trkpt lat="44.90618" lon="6.71684">
        <ele>2231.36</ele>
        <time>2019-11-13T11:08:58Z</time>
      </trkpt>
      <trkpt lat="44.90622" lon="6.71692">
        <ele>2227.99</ele>
        <time>2019-11-13T11:09:00Z</time>
      </trkpt>
      <trkpt lat="44.90625" lon="6.71704">
        <ele>2224.15</ele>
        <time>2019-11-13T11:09:03Z</time>
      </trkpt>
      <trkpt lat="44.90624" lon="6.71709">
        <ele>2224.15</ele>
        <time>2019-11-13T11:09:04Z</time>
      </trkpt>
      <trkpt lat="44.90637" lon="6.71717">
        <ele>2220.78</ele>
        <time>2019-11-13T11:09:08Z</time>
      </trkpt>
      <trkpt lat="44.90641" lon="6.71727">
        <ele>2217.42</ele>
        <time>2019-11-13T11:09:11Z</time>
      </trkpt>
      <trkpt lat="44.9065" lon="6.71743">
        <ele>2213.09</ele>
        <time>2019-11-13T11:09:15Z</time>
      </trkpt>
      <trkpt lat="44.90647" lon="6.71758">
        <ele>2209.25</ele>
        <time>2019-11-13T11:09:18Z</time>
      </trkpt>
      <trkpt lat="44.90652" lon="6.71771">
        <ele>2206.36</ele>
        <time>2019-11-13T11:09:21Z</time>
      </trkpt>
      <trkpt lat="44.90659" lon="6.71778">
        <ele>2205.4</ele>
        <time>2019-11-13T11:09:27Z</time>
      </trkpt>
      <trkpt lat="44.90659" lon="6.71778">
        <ele>2204.92</ele>
        <time>2019-11-13T11:09:43Z</time>
      </trkpt>
      <trkpt lat="44.90667" lon="6.71797">
        <ele>2202.52</ele>
        <time>2019-11-13T11:09:49Z</time>
      </trkpt>
      <trkpt lat="44.90679" lon="6.71815">
        <ele>2202.04</ele>
        <time>2019-11-13T11:09:58Z</time>
      </trkpt>
      <trkpt lat="44.90681" lon="6.71818">
        <ele>2201.56</ele>
        <time>2019-11-13T11:10:12Z</time>
      </trkpt>
      <trkpt lat="44.90681" lon="6.71818">
        <ele>2201.56</ele>
        <time>2019-11-13T11:10:38Z</time>
      </trkpt>
      <trkpt lat="44.90688" lon="6.71834">
        <ele>2199.63</ele>
        <time>2019-11-13T11:10:52Z</time>
      </trkpt>
      <trkpt lat="44.90684" lon="6.71851">
        <ele>2195.79</ele>
        <time>2019-11-13T11:10:56Z</time>
      </trkpt>
      <trkpt lat="44.90691" lon="6.71862">
        <ele>2193.39</ele>
        <time>2019-11-13T11:10:59Z</time>
      </trkpt>
      <trkpt lat="44.90699" lon="6.71872">
        <ele>2192.42</ele>
        <time>2019-11-13T11:11:03Z</time>
      </trkpt>
      <trkpt lat="44.90697" lon="6.71885">
        <ele>2188.1</ele>
        <time>2019-11-13T11:11:07Z</time>
      </trkpt>
      <trkpt lat="44.90703" lon="6.71903">
        <ele>2185.21</ele>
        <time>2019-11-13T11:11:11Z</time>
      </trkpt>
      <trkpt lat="44.90709" lon="6.71911">
        <ele>2184.25</ele>
        <time>2019-11-13T11:11:13Z</time>
      </trkpt>
      <trkpt lat="44.90727" lon="6.71934">
        <ele>2181.37</ele>
        <time>2019-11-13T11:11:20Z</time>
      </trkpt>
      <trkpt lat="44.90729" lon="6.71935">
        <ele>2180.89</ele>
        <time>2019-11-13T11:11:21Z</time>
      </trkpt>
      <trkpt lat="44.90738" lon="6.71946">
        <ele>2179.93</ele>
        <time>2019-11-13T11:11:26Z</time>
      </trkpt>
      <trkpt lat="44.90757" lon="6.71964">
        <ele>2176.08</ele>
        <time>2019-11-13T11:11:32Z</time>
      </trkpt>
      <trkpt lat="44.90782" lon="6.71986">
        <ele>2172.72</ele>
        <time>2019-11-13T11:11:41Z</time>
      </trkpt>
      <trkpt lat="44.90785" lon="6.71988">
        <ele>2172.72</ele>
        <time>2019-11-13T11:11:42Z</time>
      </trkpt>
      <trkpt lat="44.9079" lon="6.71991">
        <ele>2171.76</ele>
        <time>2019-11-13T11:11:44Z</time>
      </trkpt>
      <trkpt lat="44.90805" lon="6.72011">
        <ele>2168.39</ele>
        <time>2019-11-13T11:11:51Z</time>
      </trkpt>
      <trkpt lat="44.90804" lon="6.72015">
        <ele>2167.91</ele>
        <time>2019-11-13T11:11:59Z</time>
      </trkpt>
      <trkpt lat="44.908" lon="6.72019">
        <ele>2167.43</ele>
        <time>2019-11-13T11:12:15Z</time>
      </trkpt>
      <trkpt lat="44.90802" lon="6.72024">
        <ele>2166.47</ele>
        <time>2019-11-13T11:12:18Z</time>
      </trkpt>
      <trkpt lat="44.90803" lon="6.72034">
        <ele>2165.03</ele>
        <time>2019-11-13T11:12:21Z</time>
      </trkpt>
      <trkpt lat="44.90803" lon="6.72051">
        <ele>2161.66</ele>
        <time>2019-11-13T11:12:27Z</time>
      </trkpt>
      <trkpt lat="44.90829" lon="6.72055">
        <ele>2158.3</ele>
        <time>2019-11-13T11:12:34Z</time>
      </trkpt>
      <trkpt lat="44.90839" lon="6.72069">
        <ele>2155.41</ele>
        <time>2019-11-13T11:12:38Z</time>
      </trkpt>
      <trkpt lat="44.90845" lon="6.72082">
        <ele>2152.53</ele>
        <time>2019-11-13T11:12:41Z</time>
      </trkpt>
      <trkpt lat="44.90852" lon="6.72083">
        <ele>2151.09</ele>
        <time>2019-11-13T11:12:43Z</time>
      </trkpt>
      <trkpt lat="44.90861" lon="6.72083">
        <ele>2150.13</ele>
        <time>2019-11-13T11:12:46Z</time>
      </trkpt>
      <trkpt lat="44.90867" lon="6.72093">
        <ele>2147.24</ele>
        <time>2019-11-13T11:12:49Z</time>
      </trkpt>
      <trkpt lat="44.90875" lon="6.72109">
        <ele>2142.44</ele>
        <time>2019-11-13T11:12:53Z</time>
      </trkpt>
      <trkpt lat="44.9087" lon="6.72126">
        <ele>2140.51</ele>
        <time>2019-11-13T11:12:56Z</time>
      </trkpt>
      <trkpt lat="44.90867" lon="6.7213">
        <ele>2141.47</ele>
        <time>2019-11-13T11:13:08Z</time>
      </trkpt>
      <trkpt lat="44.90865" lon="6.72129">
        <ele>2141.47</ele>
        <time>2019-11-13T11:13:32Z</time>
      </trkpt>
      <trkpt lat="44.90864" lon="6.72129">
        <ele>2141.95</ele>
        <time>2019-11-13T11:13:53Z</time>
      </trkpt>
      <trkpt lat="44.90864" lon="6.72131">
        <ele>2141.47</ele>
        <time>2019-11-13T11:14:18Z</time>
      </trkpt>
      <trkpt lat="44.90864" lon="6.7213">
        <ele>2141.47</ele>
        <time>2019-11-13T11:14:40Z</time>
      </trkpt>
      <trkpt lat="44.90863" lon="6.72131">
        <ele>2141.47</ele>
        <time>2019-11-13T11:15:07Z</time>
      </trkpt>
      <trkpt lat="44.90862" lon="6.72133">
        <ele>2140.99</ele>
        <time>2019-11-13T11:15:30Z</time>
      </trkpt>
      <trkpt lat="44.90862" lon="6.72134">
        <ele>2140.99</ele>
        <time>2019-11-13T11:15:58Z</time>
      </trkpt>
      <trkpt lat="44.90862" lon="6.72132">
        <ele>2140.99</ele>
        <time>2019-11-13T11:16:20Z</time>
      </trkpt>
      <trkpt lat="44.90862" lon="6.72134">
        <ele>2140.99</ele>
        <time>2019-11-13T11:16:48Z</time>
      </trkpt>
      <trkpt lat="44.90863" lon="6.72134">
        <ele>2140.51</ele>
        <time>2019-11-13T11:17:10Z</time>
      </trkpt>
      <trkpt lat="44.90862" lon="6.72136">
        <ele>2140.51</ele>
        <time>2019-11-13T11:17:26Z</time>
      </trkpt>
      <trkpt lat="44.90867" lon="6.72146">
        <ele>2138.11</ele>
        <time>2019-11-13T11:17:30Z</time>
      </trkpt>
      <trkpt lat="44.90876" lon="6.72168">
        <ele>2131.86</ele>
        <time>2019-11-13T11:17:35Z</time>
      </trkpt>
      <trkpt lat="44.90882" lon="6.72177">
        <ele>2129.94</ele>
        <time>2019-11-13T11:17:37Z</time>
      </trkpt>
      <trkpt lat="44.90897" lon="6.72188">
        <ele>2126.57</ele>
        <time>2019-11-13T11:17:41Z</time>
      </trkpt>
      <trkpt lat="44.90908" lon="6.72203">
        <ele>2122.73</ele>
        <time>2019-11-13T11:17:45Z</time>
      </trkpt>
      <trkpt lat="44.90921" lon="6.72201">
        <ele>2119.84</ele>
        <time>2019-11-13T11:17:48Z</time>
      </trkpt>
      <trkpt lat="44.9093" lon="6.72199">
        <ele>2119.36</ele>
        <time>2019-11-13T11:17:50Z</time>
      </trkpt>
      <trkpt lat="44.90938" lon="6.72208">
        <ele>2116</ele>
        <time>2019-11-13T11:17:52Z</time>
      </trkpt>
      <trkpt lat="44.90946" lon="6.72214">
        <ele>2114.08</ele>
        <time>2019-11-13T11:17:54Z</time>
      </trkpt>
      <trkpt lat="44.90956" lon="6.72218">
        <ele>2113.12</ele>
        <time>2019-11-13T11:17:56Z</time>
      </trkpt>
      <trkpt lat="44.90968" lon="6.72223">
        <ele>2112.15</ele>
        <time>2019-11-13T11:17:59Z</time>
      </trkpt>
      <trkpt lat="44.90971" lon="6.72232">
        <ele>2109.75</ele>
        <time>2019-11-13T11:18:02Z</time>
      </trkpt>
      <trkpt lat="44.90971" lon="6.72243">
        <ele>2107.83</ele>
        <time>2019-11-13T11:18:05Z</time>
      </trkpt>
      <trkpt lat="44.90981" lon="6.72262">
        <ele>2103.5</ele>
        <time>2019-11-13T11:18:11Z</time>
      </trkpt>
      <trkpt lat="44.90987" lon="6.72268">
        <ele>2100.14</ele>
        <time>2019-11-13T11:18:13Z</time>
      </trkpt>
      <trkpt lat="44.90992" lon="6.72274">
        <ele>2098.21</ele>
        <time>2019-11-13T11:18:15Z</time>
      </trkpt>
      <trkpt lat="44.91012" lon="6.72282">
        <ele>2094.37</ele>
        <time>2019-11-13T11:18:21Z</time>
      </trkpt>
      <trkpt lat="44.91027" lon="6.72285">
        <ele>2091</ele>
        <time>2019-11-13T11:18:25Z</time>
      </trkpt>
      <trkpt lat="44.91037" lon="6.72286">
        <ele>2089.56</ele>
        <time>2019-11-13T11:18:27Z</time>
      </trkpt>
      <trkpt lat="44.91055" lon="6.72294">
        <ele>2089.08</ele>
        <time>2019-11-13T11:18:31Z</time>
      </trkpt>
      <trkpt lat="44.91065" lon="6.72294">
        <ele>2089.56</ele>
        <time>2019-11-13T11:18:42Z</time>
      </trkpt>
      <trkpt lat="44.91066" lon="6.72294">
        <ele>2089.56</ele>
        <time>2019-11-13T11:19:00Z</time>
      </trkpt>
      <trkpt lat="44.91066" lon="6.72295">
        <ele>2090.04</ele>
        <time>2019-11-13T11:19:23Z</time>
      </trkpt>
      <trkpt lat="44.91065" lon="6.72294">
        <ele>2090.04</ele>
        <time>2019-11-13T11:19:49Z</time>
      </trkpt>
      <trkpt lat="44.91081" lon="6.7229">
        <ele>2089.08</ele>
        <time>2019-11-13T11:20:01Z</time>
      </trkpt>
      <trkpt lat="44.91108" lon="6.72287">
        <ele>2087.16</ele>
        <time>2019-11-13T11:20:15Z</time>
      </trkpt>
      <trkpt lat="44.91148" lon="6.72306">
        <ele>2083.79</ele>
        <time>2019-11-13T11:20:26Z</time>
      </trkpt>
      <trkpt lat="44.91163" lon="6.7231">
        <ele>2082.83</ele>
        <time>2019-11-13T11:20:30Z</time>
      </trkpt>
      <trkpt lat="44.91184" lon="6.72322">
        <ele>2078.03</ele>
        <time>2019-11-13T11:20:35Z</time>
      </trkpt>
      <trkpt lat="44.91188" lon="6.72325">
        <ele>2077.07</ele>
        <time>2019-11-13T11:20:36Z</time>
      </trkpt>
      <trkpt lat="44.91208" lon="6.72333">
        <ele>2075.14</ele>
        <time>2019-11-13T11:20:40Z</time>
      </trkpt>
      <trkpt lat="44.91221" lon="6.7234">
        <ele>2073.7</ele>
        <time>2019-11-13T11:20:43Z</time>
      </trkpt>
      <trkpt lat="44.91235" lon="6.72343">
        <ele>2072.26</ele>
        <time>2019-11-13T11:20:46Z</time>
      </trkpt>
      <trkpt lat="44.91258" lon="6.72356">
        <ele>2066.49</ele>
        <time>2019-11-13T11:20:51Z</time>
      </trkpt>
      <trkpt lat="44.91268" lon="6.7236">
        <ele>2064.57</ele>
        <time>2019-11-13T11:20:53Z</time>
      </trkpt>
      <trkpt lat="44.91292" lon="6.72386">
        <ele>2060.24</ele>
        <time>2019-11-13T11:21:00Z</time>
      </trkpt>
      <trkpt lat="44.91306" lon="6.724">
        <ele>2057.84</ele>
        <time>2019-11-13T11:21:04Z</time>
      </trkpt>
      <trkpt lat="44.91312" lon="6.72395">
        <ele>2058.8</ele>
        <time>2019-11-13T11:21:11Z</time>
      </trkpt>
      <trkpt lat="44.91311" lon="6.72398">
        <ele>2058.8</ele>
        <time>2019-11-13T11:21:29Z</time>
      </trkpt>
      <trkpt lat="44.91309" lon="6.72401">
        <ele>2059.28</ele>
        <time>2019-11-13T11:21:56Z</time>
      </trkpt>
      <trkpt lat="44.91311" lon="6.72399">
        <ele>2059.28</ele>
        <time>2019-11-13T11:22:23Z</time>
      </trkpt>
      <trkpt lat="44.9131" lon="6.72399">
        <ele>2059.28</ele>
        <time>2019-11-13T11:22:49Z</time>
      </trkpt>
      <trkpt lat="44.91311" lon="6.72399">
        <ele>2059.76</ele>
        <time>2019-11-13T11:23:09Z</time>
      </trkpt>
      <trkpt lat="44.9131" lon="6.724">
        <ele>2059.76</ele>
        <time>2019-11-13T11:23:31Z</time>
      </trkpt>
      <trkpt lat="44.91311" lon="6.72398">
        <ele>2059.76</ele>
        <time>2019-11-13T11:23:57Z</time>
      </trkpt>
      <trkpt lat="44.9131" lon="6.72398">
        <ele>2059.76</ele>
        <time>2019-11-13T11:24:17Z</time>
      </trkpt>
      <trkpt lat="44.9131" lon="6.72399">
        <ele>2059.76</ele>
        <time>2019-11-13T11:24:19Z</time>
      </trkpt>
      <trkpt lat="44.91314" lon="6.72407">
        <ele>2058.32</ele>
        <time>2019-11-13T11:24:23Z</time>
      </trkpt>
      <trkpt lat="44.91344" lon="6.72417">
        <ele>2056.4</ele>
        <time>2019-11-13T11:24:40Z</time>
      </trkpt>
      <trkpt lat="44.91351" lon="6.72418">
        <ele>2054.47</ele>
        <time>2019-11-13T11:24:44Z</time>
      </trkpt>
      <trkpt lat="44.91367" lon="6.72418">
        <ele>2053.51</ele>
        <time>2019-11-13T11:24:58Z</time>
      </trkpt>
      <trkpt lat="44.91399" lon="6.72426">
        <ele>2051.59</ele>
        <time>2019-11-13T11:25:14Z</time>
      </trkpt>
      <trkpt lat="44.91438" lon="6.72439">
        <ele>2048.23</ele>
        <time>2019-11-13T11:25:30Z</time>
      </trkpt>
      <trkpt lat="44.91441" lon="6.72441">
        <ele>2047.26</ele>
        <time>2019-11-13T11:25:31Z</time>
      </trkpt>
      <trkpt lat="44.91463" lon="6.7245">
        <ele>2044.38</ele>
        <time>2019-11-13T11:25:36Z</time>
      </trkpt>
      <trkpt lat="44.91476" lon="6.72459">
        <ele>2041.5</ele>
        <time>2019-11-13T11:25:39Z</time>
      </trkpt>
      <trkpt lat="44.91499" lon="6.72476">
        <ele>2037.17</ele>
        <time>2019-11-13T11:25:43Z</time>
      </trkpt>
      <trkpt lat="44.9151" lon="6.72481">
        <ele>2035.73</ele>
        <time>2019-11-13T11:25:45Z</time>
      </trkpt>
      <trkpt lat="44.91516" lon="6.72483">
        <ele>2035.25</ele>
        <time>2019-11-13T11:25:46Z</time>
      </trkpt>
      <trkpt lat="44.91533" lon="6.72485">
        <ele>2033.33</ele>
        <time>2019-11-13T11:25:49Z</time>
      </trkpt>
      <trkpt lat="44.91544" lon="6.72483">
        <ele>2032.36</ele>
        <time>2019-11-13T11:25:51Z</time>
      </trkpt>
      <trkpt lat="44.9156" lon="6.72481">
        <ele>2029.96</ele>
        <time>2019-11-13T11:25:54Z</time>
      </trkpt>
      <trkpt lat="44.91581" lon="6.72478">
        <ele>2026.12</ele>
        <time>2019-11-13T11:25:58Z</time>
      </trkpt>
      <trkpt lat="44.91607" lon="6.72476">
        <ele>2022.27</ele>
        <time>2019-11-13T11:26:03Z</time>
      </trkpt>
      <trkpt lat="44.91621" lon="6.72474">
        <ele>2021.79</ele>
        <time>2019-11-13T11:26:06Z</time>
      </trkpt>
      <trkpt lat="44.91634" lon="6.72468">
        <ele>2019.87</ele>
        <time>2019-11-13T11:26:09Z</time>
      </trkpt>
      <trkpt lat="44.91656" lon="6.72461">
        <ele>2016.5</ele>
        <time>2019-11-13T11:26:15Z</time>
      </trkpt>
      <trkpt lat="44.91663" lon="6.72459">
        <ele>2013.62</ele>
        <time>2019-11-13T11:26:16Z</time>
      </trkpt>
      <trkpt lat="44.91709" lon="6.72447">
        <ele>2010.73</ele>
        <time>2019-11-13T11:26:25Z</time>
      </trkpt>
      <trkpt lat="44.91733" lon="6.72444">
        <ele>2007.85</ele>
        <time>2019-11-13T11:26:30Z</time>
      </trkpt>
      <trkpt lat="44.91786" lon="6.72439">
        <ele>2004.97</ele>
        <time>2019-11-13T11:26:44Z</time>
      </trkpt>
      <trkpt lat="44.91844" lon="6.72425">
        <ele>2001.12</ele>
        <time>2019-11-13T11:26:58Z</time>
      </trkpt>
      <trkpt lat="44.9186" lon="6.72419">
        <ele>1999.2</ele>
        <time>2019-11-13T11:27:01Z</time>
      </trkpt>
      <trkpt lat="44.91899" lon="6.72407">
        <ele>1996.8</ele>
        <time>2019-11-13T11:27:09Z</time>
      </trkpt>
      <trkpt lat="44.91908" lon="6.72402">
        <ele>1996.8</ele>
        <time>2019-11-13T11:27:19Z</time>
      </trkpt>
      <trkpt lat="44.91905" lon="6.72404">
        <ele>1996.8</ele>
        <time>2019-11-13T11:27:34Z</time>
      </trkpt>
      <trkpt lat="44.91905" lon="6.72406">
        <ele>1997.28</ele>
        <time>2019-11-13T11:27:55Z</time>
      </trkpt>
      <trkpt lat="44.91907" lon="6.72405">
        <ele>1997.28</ele>
        <time>2019-11-13T11:28:18Z</time>
      </trkpt>
      <trkpt lat="44.91906" lon="6.72403">
        <ele>1997.28</ele>
        <time>2019-11-13T11:28:44Z</time>
      </trkpt>
      <trkpt lat="44.91904" lon="6.72402">
        <ele>1997.76</ele>
        <time>2019-11-13T11:29:03Z</time>
      </trkpt>
      <trkpt lat="44.91904" lon="6.72404">
        <ele>1997.76</ele>
        <time>2019-11-13T11:29:27Z</time>
      </trkpt>
      <trkpt lat="44.91903" lon="6.72406">
        <ele>1998.24</ele>
        <time>2019-11-13T11:29:52Z</time>
      </trkpt>
      <trkpt lat="44.91902" lon="6.72406">
        <ele>1998.24</ele>
        <time>2019-11-13T11:30:20Z</time>
      </trkpt>
      <trkpt lat="44.91905" lon="6.72404">
        <ele>1998.24</ele>
        <time>2019-11-13T11:30:47Z</time>
      </trkpt>
      <trkpt lat="44.91919" lon="6.72401">
        <ele>1996.32</ele>
        <time>2019-11-13T11:31:01Z</time>
      </trkpt>
      <trkpt lat="44.91954" lon="6.72394">
        <ele>1992.95</ele>
        <time>2019-11-13T11:31:12Z</time>
      </trkpt>
      <trkpt lat="44.91988" lon="6.72374">
        <ele>1990.07</ele>
        <time>2019-11-13T11:31:22Z</time>
      </trkpt>
      <trkpt lat="44.92014" lon="6.72366">
        <ele>1986.22</ele>
        <time>2019-11-13T11:31:27Z</time>
      </trkpt>
      <trkpt lat="44.92019" lon="6.72364">
        <ele>1986.22</ele>
        <time>2019-11-13T11:31:28Z</time>
      </trkpt>
      <trkpt lat="44.92034" lon="6.72359">
        <ele>1984.3</ele>
        <time>2019-11-13T11:31:31Z</time>
      </trkpt>
      <trkpt lat="44.92039" lon="6.72358">
        <ele>1983.82</ele>
        <time>2019-11-13T11:31:32Z</time>
      </trkpt>
      <trkpt lat="44.92061" lon="6.7235">
        <ele>1980.93</ele>
        <time>2019-11-13T11:31:36Z</time>
      </trkpt>
      <trkpt lat="44.92089" lon="6.7233">
        <ele>1976.13</ele>
        <time>2019-11-13T11:31:41Z</time>
      </trkpt>
      <trkpt lat="44.92104" lon="6.72319">
        <ele>1974.69</ele>
        <time>2019-11-13T11:31:44Z</time>
      </trkpt>
      <trkpt lat="44.92129" lon="6.72306">
        <ele>1973.24</ele>
        <time>2019-11-13T11:31:49Z</time>
      </trkpt>
      <trkpt lat="44.92153" lon="6.72283">
        <ele>1970.36</ele>
        <time>2019-11-13T11:31:55Z</time>
      </trkpt>
      <trkpt lat="44.9218" lon="6.72264">
        <ele>1967.48</ele>
        <time>2019-11-13T11:32:01Z</time>
      </trkpt>
      <trkpt lat="44.92194" lon="6.72254">
        <ele>1965.07</ele>
        <time>2019-11-13T11:32:04Z</time>
      </trkpt>
      <trkpt lat="44.92225" lon="6.72237">
        <ele>1962.19</ele>
        <time>2019-11-13T11:32:11Z</time>
      </trkpt>
      <trkpt lat="44.92226" lon="6.72241">
        <ele>1962.67</ele>
        <time>2019-11-13T11:32:24Z</time>
      </trkpt>
      <trkpt lat="44.92224" lon="6.72241">
        <ele>1962.67</ele>
        <time>2019-11-13T11:32:44Z</time>
      </trkpt>
      <trkpt lat="44.92225" lon="6.72241">
        <ele>1964.59</ele>
        <time>2019-11-13T11:33:07Z</time>
      </trkpt>
      <trkpt lat="44.92229" lon="6.72241">
        <ele>1962.67</ele>
        <time>2019-11-13T11:33:28Z</time>
      </trkpt>
      <trkpt lat="44.92222" lon="6.72236">
        <ele>1962.67</ele>
        <time>2019-11-13T11:33:50Z</time>
      </trkpt>
      <trkpt lat="44.92223" lon="6.72237">
        <ele>1962.67</ele>
        <time>2019-11-13T11:34:16Z</time>
      </trkpt>
      <trkpt lat="44.9223" lon="6.72235">
        <ele>1961.71</ele>
        <time>2019-11-13T11:34:27Z</time>
      </trkpt>
      <trkpt lat="44.9224" lon="6.72224">
        <ele>1959.78</ele>
        <time>2019-11-13T11:34:31Z</time>
      </trkpt>
      <trkpt lat="44.92267" lon="6.72205">
        <ele>1955.94</ele>
        <time>2019-11-13T11:34:39Z</time>
      </trkpt>
      <trkpt lat="44.92285" lon="6.72188">
        <ele>1952.57</ele>
        <time>2019-11-13T11:34:44Z</time>
      </trkpt>
      <trkpt lat="44.92292" lon="6.72181">
        <ele>1951.13</ele>
        <time>2019-11-13T11:34:46Z</time>
      </trkpt>
      <trkpt lat="44.92319" lon="6.72164">
        <ele>1946.81</ele>
        <time>2019-11-13T11:34:54Z</time>
      </trkpt>
      <trkpt lat="44.92329" lon="6.72162">
        <ele>1944.88</ele>
        <time>2019-11-13T11:34:57Z</time>
      </trkpt>
      <trkpt lat="44.92347" lon="6.72166">
        <ele>1941.52</ele>
        <time>2019-11-13T11:35:02Z</time>
      </trkpt>
      <trkpt lat="44.92377" lon="6.72168">
        <ele>1935.75</ele>
        <time>2019-11-13T11:35:10Z</time>
      </trkpt>
      <trkpt lat="44.92396" lon="6.72169">
        <ele>1931.43</ele>
        <time>2019-11-13T11:35:15Z</time>
      </trkpt>
      <trkpt lat="44.92411" lon="6.72169">
        <ele>1927.58</ele>
        <time>2019-11-13T11:35:18Z</time>
      </trkpt>
      <trkpt lat="44.92445" lon="6.72165">
        <ele>1921.33</ele>
        <time>2019-11-13T11:35:25Z</time>
      </trkpt>
      <trkpt lat="44.92459" lon="6.72162">
        <ele>1918.45</ele>
        <time>2019-11-13T11:35:28Z</time>
      </trkpt>
      <trkpt lat="44.9248" lon="6.72166">
        <ele>1915.56</ele>
        <time>2019-11-13T11:35:34Z</time>
      </trkpt>
      <trkpt lat="44.92481" lon="6.72169">
        <ele>1916.53</ele>
        <time>2019-11-13T11:35:48Z</time>
      </trkpt>
      <trkpt lat="44.92481" lon="6.72169">
        <ele>1916.04</ele>
        <time>2019-11-13T11:36:05Z</time>
      </trkpt>
      <trkpt lat="44.92499" lon="6.72165">
        <ele>1913.64</ele>
        <time>2019-11-13T11:36:11Z</time>
      </trkpt>
      <trkpt lat="44.9252" lon="6.7217">
        <ele>1909.8</ele>
        <time>2019-11-13T11:36:16Z</time>
      </trkpt>
      <trkpt lat="44.92541" lon="6.72173">
        <ele>1906.43</ele>
        <time>2019-11-13T11:36:21Z</time>
      </trkpt>
      <trkpt lat="44.92566" lon="6.7217">
        <ele>1900.66</ele>
        <time>2019-11-13T11:36:27Z</time>
      </trkpt>
      <trkpt lat="44.9257" lon="6.72174">
        <ele>1900.18</ele>
        <time>2019-11-13T11:36:28Z</time>
      </trkpt>
      <trkpt lat="44.92576" lon="6.7218">
        <ele>1900.18</ele>
        <time>2019-11-13T11:36:30Z</time>
      </trkpt>
      <trkpt lat="44.92584" lon="6.72172">
        <ele>1898.74</ele>
        <time>2019-11-13T11:36:34Z</time>
      </trkpt>
      <trkpt lat="44.92581" lon="6.72171">
        <ele>1898.74</ele>
        <time>2019-11-13T11:36:47Z</time>
      </trkpt>
      <trkpt lat="44.9258" lon="6.72171">
        <ele>1898.74</ele>
        <time>2019-11-13T11:37:06Z</time>
      </trkpt>
      <trkpt lat="44.9258" lon="6.7217">
        <ele>1899.22</ele>
        <time>2019-11-13T11:37:25Z</time>
      </trkpt>
      <trkpt lat="44.9258" lon="6.72169">
        <ele>1898.74</ele>
        <time>2019-11-13T11:37:47Z</time>
      </trkpt>
      <trkpt lat="44.92602" lon="6.72175">
        <ele>1894.9</ele>
        <time>2019-11-13T11:37:54Z</time>
      </trkpt>
      <trkpt lat="44.92619" lon="6.72178">
        <ele>1891.53</ele>
        <time>2019-11-13T11:37:57Z</time>
      </trkpt>
      <trkpt lat="44.92633" lon="6.72189">
        <ele>1888.65</ele>
        <time>2019-11-13T11:38:00Z</time>
      </trkpt>
      <trkpt lat="44.92656" lon="6.72187">
        <ele>1885.76</ele>
        <time>2019-11-13T11:38:05Z</time>
      </trkpt>
      <trkpt lat="44.92671" lon="6.72181">
        <ele>1883.36</ele>
        <time>2019-11-13T11:38:09Z</time>
      </trkpt>
      <trkpt lat="44.927" lon="6.72172">
        <ele>1877.11</ele>
        <time>2019-11-13T11:38:16Z</time>
      </trkpt>
      <trkpt lat="44.92707" lon="6.72174">
        <ele>1876.63</ele>
        <time>2019-11-13T11:38:18Z</time>
      </trkpt>
      <trkpt lat="44.9272" lon="6.72162">
        <ele>1872.79</ele>
        <time>2019-11-13T11:38:22Z</time>
      </trkpt>
      <trkpt lat="44.92733" lon="6.72161">
        <ele>1871.34</ele>
        <time>2019-11-13T11:38:25Z</time>
      </trkpt>
      <trkpt lat="44.92749" lon="6.72158">
        <ele>1868.94</ele>
        <time>2019-11-13T11:38:28Z</time>
      </trkpt>
      <trkpt lat="44.92756" lon="6.72152">
        <ele>1869.42</ele>
        <time>2019-11-13T11:38:30Z</time>
      </trkpt>
      <trkpt lat="44.92771" lon="6.72136">
        <ele>1864.61</ele>
        <time>2019-11-13T11:38:34Z</time>
      </trkpt>
      <trkpt lat="44.92775" lon="6.72132">
        <ele>1864.61</ele>
        <time>2019-11-13T11:38:35Z</time>
      </trkpt>
      <trkpt lat="44.92783" lon="6.72126">
        <ele>1864.13</ele>
        <time>2019-11-13T11:38:37Z</time>
      </trkpt>
      <trkpt lat="44.928" lon="6.7211">
        <ele>1861.25</ele>
        <time>2019-11-13T11:38:41Z</time>
      </trkpt>
      <trkpt lat="44.92807" lon="6.72101">
        <ele>1860.29</ele>
        <time>2019-11-13T11:38:43Z</time>
      </trkpt>
      <trkpt lat="44.9282" lon="6.72084">
        <ele>1857.4</ele>
        <time>2019-11-13T11:38:49Z</time>
      </trkpt>
      <trkpt lat="44.92829" lon="6.72066">
        <ele>1855.48</ele>
        <time>2019-11-13T11:38:55Z</time>
      </trkpt>
      <trkpt lat="44.92854" lon="6.72042">
        <ele>1852.6</ele>
        <time>2019-11-13T11:39:07Z</time>
      </trkpt>
      <trkpt lat="44.9286" lon="6.72037">
        <ele>1851.64</ele>
        <time>2019-11-13T11:39:09Z</time>
      </trkpt>
      <trkpt lat="44.92879" lon="6.72009">
        <ele>1850.68</ele>
        <time>2019-11-13T11:39:21Z</time>
      </trkpt>
      <trkpt lat="44.92879" lon="6.72008">
        <ele>1850.68</ele>
        <time>2019-11-13T11:39:38Z</time>
      </trkpt>
      <trkpt lat="44.92879" lon="6.7201">
        <ele>1850.68</ele>
        <time>2019-11-13T11:39:54Z</time>
      </trkpt>
      <trkpt lat="44.92876" lon="6.72009">
        <ele>1850.68</ele>
        <time>2019-11-13T11:40:17Z</time>
      </trkpt>
      <trkpt lat="44.92876" lon="6.7201">
        <ele>1850.68</ele>
        <time>2019-11-13T11:40:36Z</time>
      </trkpt>
      <trkpt lat="44.92875" lon="6.7201">
        <ele>1850.68</ele>
        <time>2019-11-13T11:41:00Z</time>
      </trkpt>
      <trkpt lat="44.92876" lon="6.7201">
        <ele>1850.68</ele>
        <time>2019-11-13T11:41:15Z</time>
      </trkpt>
      <trkpt lat="44.92878" lon="6.72005">
        <ele>1851.16</ele>
        <time>2019-11-13T11:41:29Z</time>
      </trkpt>
      <trkpt lat="44.9287" lon="6.72005">
        <ele>1851.64</ele>
        <time>2019-11-13T11:41:42Z</time>
      </trkpt>
      <trkpt lat="44.92866" lon="6.72002">
        <ele>1851.64</ele>
        <time>2019-11-13T11:41:46Z</time>
      </trkpt>
      <trkpt lat="44.92847" lon="6.71995">
        <ele>1853.56</ele>
        <time>2019-11-13T11:42:07Z</time>
      </trkpt>
      <trkpt lat="44.92832" lon="6.7199">
        <ele>1854.52</ele>
        <time>2019-11-13T11:42:22Z</time>
      </trkpt>
      <trkpt lat="44.92828" lon="6.71991">
        <ele>1855</ele>
        <time>2019-11-13T11:42:27Z</time>
      </trkpt>
      <trkpt lat="44.92823" lon="6.71986">
        <ele>1854.52</ele>
        <time>2019-11-13T11:42:42Z</time>
      </trkpt>
      <trkpt lat="44.92825" lon="6.7199">
        <ele>1854.52</ele>
        <time>2019-11-13T11:43:11Z</time>
      </trkpt>
      <trkpt lat="44.92826" lon="6.71989">
        <ele>1854.52</ele>
        <time>2019-11-13T11:43:36Z</time>
      </trkpt>
      <trkpt lat="44.92825" lon="6.71991">
        <ele>1855</ele>
        <time>2019-11-13T11:44:03Z</time>
      </trkpt>
      <trkpt lat="44.92825" lon="6.71991">
        <ele>1855</ele>
        <time>2019-11-13T11:44:37Z</time>
      </trkpt>
      <trkpt lat="44.92825" lon="6.7199">
        <ele>1855</ele>
        <time>2019-11-13T11:45:05Z</time>
      </trkpt>
      <trkpt lat="44.92822" lon="6.71996">
        <ele>1855.48</ele>
        <time>2019-11-13T11:45:34Z</time>
      </trkpt>
      <trkpt lat="44.92821" lon="6.71996">
        <ele>1855.96</ele>
        <time>2019-11-13T11:46:14Z</time>
      </trkpt>
      <trkpt lat="44.92822" lon="6.71993">
        <ele>1855.96</ele>
        <time>2019-11-13T11:46:43Z</time>
      </trkpt>
      <trkpt lat="44.92821" lon="6.71991">
        <ele>1855.96</ele>
        <time>2019-11-13T11:47:14Z</time>
      </trkpt>
      <trkpt lat="44.92823" lon="6.71989">
        <ele>1856.44</ele>
        <time>2019-11-13T11:47:54Z</time>
      </trkpt>
      <trkpt lat="44.92821" lon="6.7199">
        <ele>1856.92</ele>
        <time>2019-11-13T11:48:25Z</time>
      </trkpt>
      <trkpt lat="44.92821" lon="6.71991">
        <ele>1856.92</ele>
        <time>2019-11-13T11:48:54Z</time>
      </trkpt>
      <trkpt lat="44.92821" lon="6.71992">
        <ele>1857.4</ele>
        <time>2019-11-13T11:49:27Z</time>
      </trkpt>
      <trkpt lat="44.92821" lon="6.7199">
        <ele>1857.89</ele>
        <time>2019-11-13T11:49:58Z</time>
      </trkpt>
      <trkpt lat="44.92824" lon="6.7199">
        <ele>1857.89</ele>
        <time>2019-11-13T11:50:40Z</time>
      </trkpt>
      <trkpt lat="44.92823" lon="6.71988">
        <ele>1859.81</ele>
        <time>2019-11-13T11:51:18Z</time>
      </trkpt>
      <trkpt lat="44.92826" lon="6.71989">
        <ele>1858.37</ele>
        <time>2019-11-13T11:51:58Z</time>
      </trkpt>
      <trkpt lat="44.92825" lon="6.71989">
        <ele>1858.37</ele>
        <time>2019-11-13T11:52:30Z</time>
      </trkpt>
      <trkpt lat="44.9282" lon="6.71991">
        <ele>1858.37</ele>
        <time>2019-11-13T11:52:54Z</time>
      </trkpt>
      <trkpt lat="44.92822" lon="6.7199">
        <ele>1858.37</ele>
        <time>2019-11-13T11:53:23Z</time>
      </trkpt>
      <trkpt lat="44.92824" lon="6.71987">
        <ele>1859.33</ele>
        <time>2019-11-13T11:54:00Z</time>
      </trkpt>
      <trkpt lat="44.92826" lon="6.71991">
        <ele>1859.81</ele>
        <time>2019-11-13T11:54:38Z</time>
      </trkpt>
      <trkpt lat="44.92826" lon="6.71989">
        <ele>1859.81</ele>
        <time>2019-11-13T11:55:12Z</time>
      </trkpt>
      <trkpt lat="44.92825" lon="6.71988">
        <ele>1860.29</ele>
        <time>2019-11-13T11:55:43Z</time>
      </trkpt>
      <trkpt lat="44.92825" lon="6.71987">
        <ele>1860.29</ele>
        <time>2019-11-13T11:56:10Z</time>
      </trkpt>
      <trkpt lat="44.92825" lon="6.71988">
        <ele>1860.29</ele>
        <time>2019-11-13T11:56:28Z</time>
      </trkpt>
      <trkpt lat="44.92821" lon="6.7199">
        <ele>1860.77</ele>
        <time>2019-11-13T11:56:57Z</time>
      </trkpt>
      <trkpt lat="44.92821" lon="6.71991">
        <ele>1860.77</ele>
        <time>2019-11-13T11:57:27Z</time>
      </trkpt>
      <trkpt lat="44.9282" lon="6.71992">
        <ele>1860.77</ele>
        <time>2019-11-13T11:57:53Z</time>
      </trkpt>
      <trkpt lat="44.92821" lon="6.71992">
        <ele>1860.77</ele>
        <time>2019-11-13T11:58:16Z</time>
      </trkpt>
      <trkpt lat="44.92821" lon="6.71993">
        <ele>1860.77</ele>
        <time>2019-11-13T11:58:44Z</time>
      </trkpt>
      <trkpt lat="44.92823" lon="6.7199">
        <ele>1860.77</ele>
        <time>2019-11-13T11:59:14Z</time>
      </trkpt>
      <trkpt lat="44.92823" lon="6.71986">
        <ele>1861.25</ele>
        <time>2019-11-13T11:59:27Z</time>
      </trkpt>
    </trkseg>
  </trk>
</gpx>